<?xml version="1.0" encoding="UTF-8" standalone="no" ?>
<gpx xmlns="http://www.topografix.com/GPX/1/1" xmlns:xsi="http://www.w3.org/2001/XMLSchema-instance" xsi:schemaLocation="http://www.topografix.com/GPX/1/1 http://www.topografix.com/GPX/1/1/gpx.xsd" version="1.1" creator="VisuGPX - https://www.visugpx.com">
  <metadata>
    <name>Circuit de La Motte de St-Julien-d'Armagnac</name>
    <desc><![CDATA[Belle boucle au départ de Betbezer entre forêts, vignes et retenues collinaires gâchée par la pollution chimique à proximité des vignes.
]]></desc>
  </metadata>
  <wpt lat="43.97723" lon="-0.17243">
    <ele>123.58</ele>
    <name><![CDATA[0000068]]></name>
    <type><![CDATA[Point de départ]]></type>
  </wpt>
  <wpt lat="43.97741" lon="-0.17243">
    <ele>118.99</ele>
    <name><![CDATA[0000069]]></name>
    <desc><![CDATA[<p><br /><h3>Nom: Segment: 1</h3><br />Heure de départ: 06/02/2018 11:06<br/>Heure d'arrivée: 06/02/2018 16:24<br/>Distance: 16km (05:17)<br/>Temps déplacement: 04:01<br/>Vitesse moyenne: 3,02 km/h<br/>Vitesse moyenne mouv.: 3,98 km/h<br/>Vitesse Max.: 6,1 km/h<br/>Altitude minimale: 97 m<br/>Altitude maximale: 158 m<br/>Vitesse de montée: 136,6 m/h<br/>Vitesse de descente: -178,6 m/h<br/>Gain d'altitude: 397 m<br/>Perte d'altitude: -398 m<br/>Temps de montée: 02:54<br/>Temps de descente: 02:14<br/></p>]]></desc>
    <type><![CDATA[Point d'arrivée]]></type>
  </wpt>
  <trk>
    <name><![CDATA[2018-06-02 11:06]]></name>
    <desc><![CDATA[<p>Heure de départ: 06/02/2018 11:06<br/>Heure d'arrivée: 06/02/2018 16:24<br/>Distance: 16 km (05:17)<br/>Temps déplacement: 04:01<br/>Vitesse moyenne: 3,02 km/h<br/>Vitesse moyenne mouv.: 3,98 km/h<br/>Vitesse Max.: 6,1 km/h<br/>Altitude minimale: 97 m<br/>Altitude maximale: 158 m<br/>Vitesse de montée: 120,2 m/h<br/>Vitesse de descente: -138,1 m/h<br/>Gain d'altitude: 335 m<br/>Perte d'altitude: -337 m<br/>Temps de montée: 02:47<br/>Temps de descente: 02:26<br/></p><hr align="center" width="480" style="height: 2px; width: 517px"/>]]></desc>
    <trkseg>
      <trkpt lat="43.97723" lon="-0.17243">
        <ele>123.58</ele>
        <time>2018-06-02T09:06:32Z</time>
      </trkpt>
      <trkpt lat="43.97719" lon="-0.17267">
        <ele>117.37</ele>
        <time>2018-06-02T09:08:08Z</time>
      </trkpt>
      <trkpt lat="43.97701" lon="-0.17265">
        <ele>119.07</ele>
        <time>2018-06-02T09:09:52Z</time>
      </trkpt>
      <trkpt lat="43.97689" lon="-0.17245">
        <ele>118.07</ele>
        <time>2018-06-02T09:10:09Z</time>
      </trkpt>
      <trkpt lat="43.97678" lon="-0.17224">
        <ele>119.83</ele>
        <time>2018-06-02T09:10:27Z</time>
      </trkpt>
      <trkpt lat="43.97661" lon="-0.17214">
        <ele>115.16</ele>
        <time>2018-06-02T09:10:50Z</time>
      </trkpt>
      <trkpt lat="43.9765" lon="-0.17195">
        <ele>115.06</ele>
        <time>2018-06-02T09:11:22Z</time>
      </trkpt>
      <trkpt lat="43.97662" lon="-0.17177">
        <ele>118.98</ele>
        <time>2018-06-02T09:11:40Z</time>
      </trkpt>
      <trkpt lat="43.97677" lon="-0.17162">
        <ele>121.08</ele>
        <time>2018-06-02T09:12:00Z</time>
      </trkpt>
      <trkpt lat="43.9769" lon="-0.17143">
        <ele>121.07</ele>
        <time>2018-06-02T09:12:19Z</time>
      </trkpt>
      <trkpt lat="43.97687" lon="-0.17117">
        <ele>120.07</ele>
        <time>2018-06-02T09:12:37Z</time>
      </trkpt>
      <trkpt lat="43.97682" lon="-0.17093">
        <ele>120.07</ele>
        <time>2018-06-02T09:12:52Z</time>
      </trkpt>
      <trkpt lat="43.97676" lon="-0.17069">
        <ele>118.8</ele>
        <time>2018-06-02T09:13:13Z</time>
      </trkpt>
      <trkpt lat="43.97672" lon="-0.17043">
        <ele>119.15</ele>
        <time>2018-06-02T09:13:28Z</time>
      </trkpt>
      <trkpt lat="43.97667" lon="-0.17019">
        <ele>118.77</ele>
        <time>2018-06-02T09:13:45Z</time>
      </trkpt>
      <trkpt lat="43.97662" lon="-0.16993">
        <ele>117.37</ele>
        <time>2018-06-02T09:14:03Z</time>
      </trkpt>
      <trkpt lat="43.97655" lon="-0.16968">
        <ele>116.1</ele>
        <time>2018-06-02T09:14:19Z</time>
      </trkpt>
      <trkpt lat="43.97644" lon="-0.16948">
        <ele>116.07</ele>
        <time>2018-06-02T09:14:41Z</time>
      </trkpt>
      <trkpt lat="43.97631" lon="-0.1693">
        <ele>115.07</ele>
        <time>2018-06-02T09:14:59Z</time>
      </trkpt>
      <trkpt lat="43.97618" lon="-0.16911">
        <ele>116.07</ele>
        <time>2018-06-02T09:15:20Z</time>
      </trkpt>
      <trkpt lat="43.97605" lon="-0.16894">
        <ele>115.36</ele>
        <time>2018-06-02T09:15:53Z</time>
      </trkpt>
      <trkpt lat="43.97593" lon="-0.16873">
        <ele>120.01</ele>
        <time>2018-06-02T09:16:19Z</time>
      </trkpt>
      <trkpt lat="43.97582" lon="-0.16853">
        <ele>117.37</ele>
        <time>2018-06-02T09:16:37Z</time>
      </trkpt>
      <trkpt lat="43.97571" lon="-0.16832">
        <ele>118.78</ele>
        <time>2018-06-02T09:16:57Z</time>
      </trkpt>
      <trkpt lat="43.97564" lon="-0.16808">
        <ele>117.46</ele>
        <time>2018-06-02T09:17:16Z</time>
      </trkpt>
      <trkpt lat="43.97556" lon="-0.16786">
        <ele>117.98</ele>
        <time>2018-06-02T09:17:32Z</time>
      </trkpt>
      <trkpt lat="43.97546" lon="-0.16764">
        <ele>124.1</ele>
        <time>2018-06-02T09:18:08Z</time>
      </trkpt>
      <trkpt lat="43.97531" lon="-0.16749">
        <ele>122.07</ele>
        <time>2018-06-02T09:18:33Z</time>
      </trkpt>
      <trkpt lat="43.97516" lon="-0.16734">
        <ele>120.34</ele>
        <time>2018-06-02T09:18:51Z</time>
      </trkpt>
      <trkpt lat="43.97506" lon="-0.16713">
        <ele>119.37</ele>
        <time>2018-06-02T09:19:09Z</time>
      </trkpt>
      <trkpt lat="43.97496" lon="-0.16692">
        <ele>118.07</ele>
        <time>2018-06-02T09:19:28Z</time>
      </trkpt>
      <trkpt lat="43.97486" lon="-0.1667">
        <ele>115.98</ele>
        <time>2018-06-02T09:19:47Z</time>
      </trkpt>
      <trkpt lat="43.97476" lon="-0.16648">
        <ele>114.18</ele>
        <time>2018-06-02T09:20:06Z</time>
      </trkpt>
      <trkpt lat="43.97471" lon="-0.16622">
        <ele>112.37</ele>
        <time>2018-06-02T09:20:30Z</time>
      </trkpt>
      <trkpt lat="43.97463" lon="-0.16599">
        <ele>110.08</ele>
        <time>2018-06-02T09:20:50Z</time>
      </trkpt>
      <trkpt lat="43.97459" lon="-0.16574">
        <ele>112.04</ele>
        <time>2018-06-02T09:21:21Z</time>
      </trkpt>
      <trkpt lat="43.97475" lon="-0.16561">
        <ele>114.37</ele>
        <time>2018-06-02T09:21:54Z</time>
      </trkpt>
      <trkpt lat="43.97492" lon="-0.16549">
        <ele>111.4</ele>
        <time>2018-06-02T09:22:10Z</time>
      </trkpt>
      <trkpt lat="43.97506" lon="-0.16533">
        <ele>108.07</ele>
        <time>2018-06-02T09:22:29Z</time>
      </trkpt>
      <trkpt lat="43.97514" lon="-0.16507">
        <ele>109.37</ele>
        <time>2018-06-02T09:22:52Z</time>
      </trkpt>
      <trkpt lat="43.97501" lon="-0.16489">
        <ele>104.08</ele>
        <time>2018-06-02T09:23:18Z</time>
      </trkpt>
      <trkpt lat="43.97483" lon="-0.16479">
        <ele>104.07</ele>
        <time>2018-06-02T09:23:38Z</time>
      </trkpt>
      <trkpt lat="43.97468" lon="-0.16465">
        <ele>101.37</ele>
        <time>2018-06-02T09:23:52Z</time>
      </trkpt>
      <trkpt lat="43.97457" lon="-0.16443">
        <ele>98.4</ele>
        <time>2018-06-02T09:24:07Z</time>
      </trkpt>
      <trkpt lat="43.9745" lon="-0.1642">
        <ele>97.05</ele>
        <time>2018-06-02T09:24:26Z</time>
      </trkpt>
      <trkpt lat="43.97457" lon="-0.16395">
        <ele>102.97</ele>
        <time>2018-06-02T09:24:49Z</time>
      </trkpt>
      <trkpt lat="43.97466" lon="-0.16373">
        <ele>109.65</ele>
        <time>2018-06-02T09:25:10Z</time>
      </trkpt>
      <trkpt lat="43.97478" lon="-0.16354">
        <ele>117.74</ele>
        <time>2018-06-02T09:25:30Z</time>
      </trkpt>
      <trkpt lat="43.97488" lon="-0.16333">
        <ele>119.98</ele>
        <time>2018-06-02T09:25:53Z</time>
      </trkpt>
      <trkpt lat="43.97499" lon="-0.16313">
        <ele>123.98</ele>
        <time>2018-06-02T09:26:14Z</time>
      </trkpt>
      <trkpt lat="43.97509" lon="-0.16291">
        <ele>115.86</ele>
        <time>2018-06-02T09:27:22Z</time>
      </trkpt>
      <trkpt lat="43.9752" lon="-0.1627">
        <ele>114.04</ele>
        <time>2018-06-02T09:28:03Z</time>
      </trkpt>
      <trkpt lat="43.97534" lon="-0.16252">
        <ele>114.29</ele>
        <time>2018-06-02T09:28:16Z</time>
      </trkpt>
      <trkpt lat="43.97547" lon="-0.16234">
        <ele>115.07</ele>
        <time>2018-06-02T09:28:33Z</time>
      </trkpt>
      <trkpt lat="43.97557" lon="-0.16213">
        <ele>115.07</ele>
        <time>2018-06-02T09:28:58Z</time>
      </trkpt>
      <trkpt lat="43.97571" lon="-0.16196">
        <ele>116.07</ele>
        <time>2018-06-02T09:29:12Z</time>
      </trkpt>
      <trkpt lat="43.97579" lon="-0.16172">
        <ele>116.07</ele>
        <time>2018-06-02T09:29:30Z</time>
      </trkpt>
      <trkpt lat="43.9758" lon="-0.16146">
        <ele>115.08</ele>
        <time>2018-06-02T09:29:46Z</time>
      </trkpt>
      <trkpt lat="43.97571" lon="-0.16125">
        <ele>108.77</ele>
        <time>2018-06-02T09:30:50Z</time>
      </trkpt>
      <trkpt lat="43.97568" lon="-0.16099">
        <ele>108.37</ele>
        <time>2018-06-02T09:31:51Z</time>
      </trkpt>
      <trkpt lat="43.97562" lon="-0.16075">
        <ele>110.07</ele>
        <time>2018-06-02T09:32:11Z</time>
      </trkpt>
      <trkpt lat="43.97557" lon="-0.1605">
        <ele>110.07</ele>
        <time>2018-06-02T09:33:31Z</time>
      </trkpt>
      <trkpt lat="43.97551" lon="-0.16025">
        <ele>109.08</ele>
        <time>2018-06-02T09:34:44Z</time>
      </trkpt>
      <trkpt lat="43.97538" lon="-0.16006">
        <ele>110.98</ele>
        <time>2018-06-02T09:35:02Z</time>
      </trkpt>
      <trkpt lat="43.97525" lon="-0.15989">
        <ele>112.07</ele>
        <time>2018-06-02T09:35:22Z</time>
      </trkpt>
      <trkpt lat="43.97512" lon="-0.15971">
        <ele>114.07</ele>
        <time>2018-06-02T09:35:50Z</time>
      </trkpt>
      <trkpt lat="43.97495" lon="-0.15965">
        <ele>113.07</ele>
        <time>2018-06-02T09:36:10Z</time>
      </trkpt>
      <trkpt lat="43.97477" lon="-0.15972">
        <ele>114.07</ele>
        <time>2018-06-02T09:36:31Z</time>
      </trkpt>
      <trkpt lat="43.97459" lon="-0.15972">
        <ele>114.98</ele>
        <time>2018-06-02T09:36:48Z</time>
      </trkpt>
      <trkpt lat="43.97445" lon="-0.15954">
        <ele>115.08</ele>
        <time>2018-06-02T09:37:07Z</time>
      </trkpt>
      <trkpt lat="43.97437" lon="-0.15931">
        <ele>116.05</ele>
        <time>2018-06-02T09:37:24Z</time>
      </trkpt>
      <trkpt lat="43.97425" lon="-0.15911">
        <ele>120.97</ele>
        <time>2018-06-02T09:37:42Z</time>
      </trkpt>
      <trkpt lat="43.97416" lon="-0.15889">
        <ele>123.37</ele>
        <time>2018-06-02T09:37:58Z</time>
      </trkpt>
      <trkpt lat="43.97407" lon="-0.15865">
        <ele>124.07</ele>
        <time>2018-06-02T09:38:21Z</time>
      </trkpt>
      <trkpt lat="43.97401" lon="-0.15841">
        <ele>124.77</ele>
        <time>2018-06-02T09:38:39Z</time>
      </trkpt>
      <trkpt lat="43.97394" lon="-0.15818">
        <ele>123.07</ele>
        <time>2018-06-02T09:38:56Z</time>
      </trkpt>
      <trkpt lat="43.97389" lon="-0.15792">
        <ele>122.08</ele>
        <time>2018-06-02T09:39:12Z</time>
      </trkpt>
      <trkpt lat="43.97385" lon="-0.15767">
        <ele>120.37</ele>
        <time>2018-06-02T09:39:32Z</time>
      </trkpt>
      <trkpt lat="43.97379" lon="-0.15742">
        <ele>120.07</ele>
        <time>2018-06-02T09:39:51Z</time>
      </trkpt>
      <trkpt lat="43.97372" lon="-0.15718">
        <ele>121.07</ele>
        <time>2018-06-02T09:40:08Z</time>
      </trkpt>
      <trkpt lat="43.97366" lon="-0.15695">
        <ele>124.97</ele>
        <time>2018-06-02T09:40:25Z</time>
      </trkpt>
      <trkpt lat="43.97355" lon="-0.15674">
        <ele>126.37</ele>
        <time>2018-06-02T09:40:42Z</time>
      </trkpt>
      <trkpt lat="43.97347" lon="-0.15652">
        <ele>125.16</ele>
        <time>2018-06-02T09:40:58Z</time>
      </trkpt>
      <trkpt lat="43.97337" lon="-0.15629">
        <ele>127.95</ele>
        <time>2018-06-02T09:41:16Z</time>
      </trkpt>
      <trkpt lat="43.97327" lon="-0.15607">
        <ele>128.1</ele>
        <time>2018-06-02T09:41:34Z</time>
      </trkpt>
      <trkpt lat="43.97319" lon="-0.15585">
        <ele>125.1</ele>
        <time>2018-06-02T09:41:53Z</time>
      </trkpt>
      <trkpt lat="43.97309" lon="-0.15563">
        <ele>127.98</ele>
        <time>2018-06-02T09:42:18Z</time>
      </trkpt>
      <trkpt lat="43.97299" lon="-0.15541">
        <ele>128.98</ele>
        <time>2018-06-02T09:42:36Z</time>
      </trkpt>
      <trkpt lat="43.97289" lon="-0.15519">
        <ele>128.04</ele>
        <time>2018-06-02T09:42:53Z</time>
      </trkpt>
      <trkpt lat="43.97279" lon="-0.15497">
        <ele>127.08</ele>
        <time>2018-06-02T09:43:10Z</time>
      </trkpt>
      <trkpt lat="43.97266" lon="-0.15477">
        <ele>130.37</ele>
        <time>2018-06-02T09:43:30Z</time>
      </trkpt>
      <trkpt lat="43.97254" lon="-0.15458">
        <ele>132.07</ele>
        <time>2018-06-02T09:43:48Z</time>
      </trkpt>
      <trkpt lat="43.97242" lon="-0.15439">
        <ele>128.08</ele>
        <time>2018-06-02T09:44:06Z</time>
      </trkpt>
      <trkpt lat="43.97228" lon="-0.15422">
        <ele>127.08</ele>
        <time>2018-06-02T09:44:24Z</time>
      </trkpt>
      <trkpt lat="43.9721" lon="-0.15416">
        <ele>124.16</ele>
        <time>2018-06-02T09:44:41Z</time>
      </trkpt>
      <trkpt lat="43.97193" lon="-0.15427">
        <ele>124.07</ele>
        <time>2018-06-02T09:45:02Z</time>
      </trkpt>
      <trkpt lat="43.97175" lon="-0.15419">
        <ele>124.07</ele>
        <time>2018-06-02T09:45:22Z</time>
      </trkpt>
      <trkpt lat="43.97161" lon="-0.15401">
        <ele>124.98</ele>
        <time>2018-06-02T09:45:46Z</time>
      </trkpt>
      <trkpt lat="43.97147" lon="-0.15384">
        <ele>124.77</ele>
        <time>2018-06-02T09:46:02Z</time>
      </trkpt>
      <trkpt lat="43.97132" lon="-0.15369">
        <ele>123.79</ele>
        <time>2018-06-02T09:46:19Z</time>
      </trkpt>
      <trkpt lat="43.97121" lon="-0.1535">
        <ele>123.07</ele>
        <time>2018-06-02T09:46:35Z</time>
      </trkpt>
      <trkpt lat="43.97112" lon="-0.15326">
        <ele>124.07</ele>
        <time>2018-06-02T09:46:51Z</time>
      </trkpt>
      <trkpt lat="43.97102" lon="-0.15304">
        <ele>126.07</ele>
        <time>2018-06-02T09:47:10Z</time>
      </trkpt>
      <trkpt lat="43.97084" lon="-0.15299">
        <ele>125.08</ele>
        <time>2018-06-02T09:47:29Z</time>
      </trkpt>
      <trkpt lat="43.97068" lon="-0.15311">
        <ele>123.16</ele>
        <time>2018-06-02T09:47:46Z</time>
      </trkpt>
      <trkpt lat="43.97052" lon="-0.15324">
        <ele>123.07</ele>
        <time>2018-06-02T09:48:05Z</time>
      </trkpt>
      <trkpt lat="43.97036" lon="-0.15335">
        <ele>123.08</ele>
        <time>2018-06-02T09:48:21Z</time>
      </trkpt>
      <trkpt lat="43.97018" lon="-0.1534">
        <ele>120.07</ele>
        <time>2018-06-02T09:48:39Z</time>
      </trkpt>
      <trkpt lat="43.97" lon="-0.15332">
        <ele>121.77</ele>
        <time>2018-06-02T09:48:57Z</time>
      </trkpt>
      <trkpt lat="43.96986" lon="-0.15315">
        <ele>122.07</ele>
        <time>2018-06-02T09:49:15Z</time>
      </trkpt>
      <trkpt lat="43.96969" lon="-0.15304">
        <ele>121.77</ele>
        <time>2018-06-02T09:49:32Z</time>
      </trkpt>
      <trkpt lat="43.96952" lon="-0.15294">
        <ele>122.77</ele>
        <time>2018-06-02T09:49:49Z</time>
      </trkpt>
      <trkpt lat="43.96935" lon="-0.15284">
        <ele>123.07</ele>
        <time>2018-06-02T09:50:07Z</time>
      </trkpt>
      <trkpt lat="43.96917" lon="-0.1528">
        <ele>122.28</ele>
        <time>2018-06-02T09:50:23Z</time>
      </trkpt>
      <trkpt lat="43.96899" lon="-0.15277">
        <ele>123.07</ele>
        <time>2018-06-02T09:50:41Z</time>
      </trkpt>
      <trkpt lat="43.96881" lon="-0.15277">
        <ele>124.13</ele>
        <time>2018-06-02T09:51:01Z</time>
      </trkpt>
      <trkpt lat="43.96862" lon="-0.15277">
        <ele>124.04</ele>
        <time>2018-06-02T09:51:18Z</time>
      </trkpt>
      <trkpt lat="43.96844" lon="-0.15276">
        <ele>127.07</ele>
        <time>2018-06-02T09:51:38Z</time>
      </trkpt>
      <trkpt lat="43.96824" lon="-0.15276">
        <ele>125.16</ele>
        <time>2018-06-02T09:51:55Z</time>
      </trkpt>
      <trkpt lat="43.96821" lon="-0.15251">
        <ele>129.07</ele>
        <time>2018-06-02T09:52:11Z</time>
      </trkpt>
      <trkpt lat="43.9682" lon="-0.15226">
        <ele>130.07</ele>
        <time>2018-06-02T09:52:27Z</time>
      </trkpt>
      <trkpt lat="43.96817" lon="-0.15201">
        <ele>128.08</ele>
        <time>2018-06-02T09:52:43Z</time>
      </trkpt>
      <trkpt lat="43.96817" lon="-0.15175">
        <ele>127.07</ele>
        <time>2018-06-02T09:52:58Z</time>
      </trkpt>
      <trkpt lat="43.96816" lon="-0.15149">
        <ele>125.37</ele>
        <time>2018-06-02T09:53:14Z</time>
      </trkpt>
      <trkpt lat="43.96815" lon="-0.15124">
        <ele>124.16</ele>
        <time>2018-06-02T09:53:30Z</time>
      </trkpt>
      <trkpt lat="43.96812" lon="-0.15097">
        <ele>124.31</ele>
        <time>2018-06-02T09:53:46Z</time>
      </trkpt>
      <trkpt lat="43.96813" lon="-0.15072">
        <ele>124.07</ele>
        <time>2018-06-02T09:54:02Z</time>
      </trkpt>
      <trkpt lat="43.96811" lon="-0.15047">
        <ele>127.74</ele>
        <time>2018-06-02T09:54:18Z</time>
      </trkpt>
      <trkpt lat="43.96809" lon="-0.15021">
        <ele>130.04</ele>
        <time>2018-06-02T09:54:33Z</time>
      </trkpt>
      <trkpt lat="43.96805" lon="-0.14996">
        <ele>129.07</ele>
        <time>2018-06-02T09:54:50Z</time>
      </trkpt>
      <trkpt lat="43.96802" lon="-0.14971">
        <ele>129.07</ele>
        <time>2018-06-02T09:55:07Z</time>
      </trkpt>
      <trkpt lat="43.96799" lon="-0.14946">
        <ele>129.77</ele>
        <time>2018-06-02T09:55:24Z</time>
      </trkpt>
      <trkpt lat="43.96797" lon="-0.1492">
        <ele>131.98</ele>
        <time>2018-06-02T09:55:39Z</time>
      </trkpt>
      <trkpt lat="43.96788" lon="-0.14897">
        <ele>134.95</ele>
        <time>2018-06-02T09:55:58Z</time>
      </trkpt>
      <trkpt lat="43.96774" lon="-0.1488">
        <ele>136.07</ele>
        <time>2018-06-02T09:56:14Z</time>
      </trkpt>
      <trkpt lat="43.96759" lon="-0.14865">
        <ele>134.07</ele>
        <time>2018-06-02T09:56:30Z</time>
      </trkpt>
      <trkpt lat="43.96745" lon="-0.14849">
        <ele>131.77</ele>
        <time>2018-06-02T09:56:46Z</time>
      </trkpt>
      <trkpt lat="43.9673" lon="-0.14831">
        <ele>131.07</ele>
        <time>2018-06-02T09:57:14Z</time>
      </trkpt>
      <trkpt lat="43.96718" lon="-0.14812">
        <ele>129.79</ele>
        <time>2018-06-02T09:57:29Z</time>
      </trkpt>
      <trkpt lat="43.96703" lon="-0.14796">
        <ele>129.1</ele>
        <time>2018-06-02T09:57:45Z</time>
      </trkpt>
      <trkpt lat="43.96688" lon="-0.1478">
        <ele>129.16</ele>
        <time>2018-06-02T09:57:59Z</time>
      </trkpt>
      <trkpt lat="43.96673" lon="-0.14765">
        <ele>127.29</ele>
        <time>2018-06-02T09:58:15Z</time>
      </trkpt>
      <trkpt lat="43.9666" lon="-0.14748">
        <ele>127.16</ele>
        <time>2018-06-02T09:58:30Z</time>
      </trkpt>
      <trkpt lat="43.96648" lon="-0.1473">
        <ele>128.07</ele>
        <time>2018-06-02T09:58:46Z</time>
      </trkpt>
      <trkpt lat="43.96634" lon="-0.14713">
        <ele>126.16</ele>
        <time>2018-06-02T09:59:02Z</time>
      </trkpt>
      <trkpt lat="43.9662" lon="-0.14695">
        <ele>127.37</ele>
        <time>2018-06-02T09:59:19Z</time>
      </trkpt>
      <trkpt lat="43.96606" lon="-0.1468">
        <ele>133.07</ele>
        <time>2018-06-02T09:59:36Z</time>
      </trkpt>
      <trkpt lat="43.96621" lon="-0.14665">
        <ele>135.13</ele>
        <time>2018-06-02T10:00:27Z</time>
      </trkpt>
      <trkpt lat="43.9663" lon="-0.14642">
        <ele>134.37</ele>
        <time>2018-06-02T10:01:02Z</time>
      </trkpt>
      <trkpt lat="43.96621" lon="-0.1462">
        <ele>133.07</ele>
        <time>2018-06-02T10:01:16Z</time>
      </trkpt>
      <trkpt lat="43.96609" lon="-0.146">
        <ele>128.38</ele>
        <time>2018-06-02T10:01:33Z</time>
      </trkpt>
      <trkpt lat="43.96597" lon="-0.1458">
        <ele>127.37</ele>
        <time>2018-06-02T10:01:50Z</time>
      </trkpt>
      <trkpt lat="43.96586" lon="-0.1456">
        <ele>126.07</ele>
        <time>2018-06-02T10:02:06Z</time>
      </trkpt>
      <trkpt lat="43.96567" lon="-0.1456">
        <ele>124.07</ele>
        <time>2018-06-02T10:02:26Z</time>
      </trkpt>
      <trkpt lat="43.96551" lon="-0.14547">
        <ele>125.77</ele>
        <time>2018-06-02T10:03:02Z</time>
      </trkpt>
      <trkpt lat="43.96539" lon="-0.14528">
        <ele>124.09</ele>
        <time>2018-06-02T10:03:23Z</time>
      </trkpt>
      <trkpt lat="43.96527" lon="-0.14509">
        <ele>122.77</ele>
        <time>2018-06-02T10:03:47Z</time>
      </trkpt>
      <trkpt lat="43.96513" lon="-0.14492">
        <ele>123.07</ele>
        <time>2018-06-02T10:04:10Z</time>
      </trkpt>
      <trkpt lat="43.965" lon="-0.14474">
        <ele>124.07</ele>
        <time>2018-06-02T10:04:59Z</time>
      </trkpt>
      <trkpt lat="43.96489" lon="-0.14453">
        <ele>122.8</ele>
        <time>2018-06-02T10:05:19Z</time>
      </trkpt>
      <trkpt lat="43.96477" lon="-0.14433">
        <ele>118.11</ele>
        <time>2018-06-02T10:05:38Z</time>
      </trkpt>
      <trkpt lat="43.96459" lon="-0.14433">
        <ele>115.16</ele>
        <time>2018-06-02T10:06:08Z</time>
      </trkpt>
      <trkpt lat="43.96444" lon="-0.14449">
        <ele>115.06</ele>
        <time>2018-06-02T10:06:27Z</time>
      </trkpt>
      <trkpt lat="43.9643" lon="-0.14465">
        <ele>113.07</ele>
        <time>2018-06-02T10:06:44Z</time>
      </trkpt>
      <trkpt lat="43.96416" lon="-0.14481">
        <ele>114.97</ele>
        <time>2018-06-02T10:07:17Z</time>
      </trkpt>
      <trkpt lat="43.96402" lon="-0.14498">
        <ele>112.16</ele>
        <time>2018-06-02T10:07:38Z</time>
      </trkpt>
      <trkpt lat="43.96387" lon="-0.14514">
        <ele>113.07</ele>
        <time>2018-06-02T10:07:57Z</time>
      </trkpt>
      <trkpt lat="43.96369" lon="-0.14508">
        <ele>113.1</ele>
        <time>2018-06-02T10:08:39Z</time>
      </trkpt>
      <trkpt lat="43.96354" lon="-0.14492">
        <ele>111.07</ele>
        <time>2018-06-02T10:08:59Z</time>
      </trkpt>
      <trkpt lat="43.9634" lon="-0.14475">
        <ele>108.07</ele>
        <time>2018-06-02T10:09:21Z</time>
      </trkpt>
      <trkpt lat="43.96327" lon="-0.14457">
        <ele>109.46</ele>
        <time>2018-06-02T10:09:45Z</time>
      </trkpt>
      <trkpt lat="43.96312" lon="-0.14442">
        <ele>107.07</ele>
        <time>2018-06-02T10:10:10Z</time>
      </trkpt>
      <trkpt lat="43.96314" lon="-0.14416">
        <ele>107.16</ele>
        <time>2018-06-02T10:10:38Z</time>
      </trkpt>
      <trkpt lat="43.96309" lon="-0.14392">
        <ele>109.14</ele>
        <time>2018-06-02T10:10:59Z</time>
      </trkpt>
      <trkpt lat="43.96308" lon="-0.14366">
        <ele>103.07</ele>
        <time>2018-06-02T10:12:11Z</time>
      </trkpt>
      <trkpt lat="43.96305" lon="-0.14341">
        <ele>105.1</ele>
        <time>2018-06-02T10:12:35Z</time>
      </trkpt>
      <trkpt lat="43.963" lon="-0.14316">
        <ele>106.07</ele>
        <time>2018-06-02T10:12:53Z</time>
      </trkpt>
      <trkpt lat="43.96296" lon="-0.1429">
        <ele>104.1</ele>
        <time>2018-06-02T10:13:16Z</time>
      </trkpt>
      <trkpt lat="43.96291" lon="-0.14266">
        <ele>103.8</ele>
        <time>2018-06-02T10:13:35Z</time>
      </trkpt>
      <trkpt lat="43.96286" lon="-0.1424">
        <ele>107.04</ele>
        <time>2018-06-02T10:13:58Z</time>
      </trkpt>
      <trkpt lat="43.96269" lon="-0.14252">
        <ele>99.77</ele>
        <time>2018-06-02T10:14:56Z</time>
      </trkpt>
      <trkpt lat="43.96251" lon="-0.14255">
        <ele>97.17</ele>
        <time>2018-06-02T10:15:26Z</time>
      </trkpt>
      <trkpt lat="43.96233" lon="-0.14252">
        <ele>100.04</ele>
        <time>2018-06-02T10:16:08Z</time>
      </trkpt>
      <trkpt lat="43.96215" lon="-0.14253">
        <ele>101.07</ele>
        <time>2018-06-02T10:16:27Z</time>
      </trkpt>
      <trkpt lat="43.96197" lon="-0.1426">
        <ele>102.07</ele>
        <time>2018-06-02T10:16:47Z</time>
      </trkpt>
      <trkpt lat="43.96186" lon="-0.1424">
        <ele>107.06</ele>
        <time>2018-06-02T10:17:15Z</time>
      </trkpt>
      <trkpt lat="43.96174" lon="-0.14221">
        <ele>109.06</ele>
        <time>2018-06-02T10:17:47Z</time>
      </trkpt>
      <trkpt lat="43.96157" lon="-0.14209">
        <ele>108.05</ele>
        <time>2018-06-02T10:18:09Z</time>
      </trkpt>
      <trkpt lat="43.9614" lon="-0.14213">
        <ele>113.07</ele>
        <time>2018-06-02T10:18:53Z</time>
      </trkpt>
      <trkpt lat="43.96124" lon="-0.14229">
        <ele>110.16</ele>
        <time>2018-06-02T10:19:18Z</time>
      </trkpt>
      <trkpt lat="43.96106" lon="-0.14233">
        <ele>108.37</ele>
        <time>2018-06-02T10:19:49Z</time>
      </trkpt>
      <trkpt lat="43.96088" lon="-0.14233">
        <ele>109.77</ele>
        <time>2018-06-02T10:20:21Z</time>
      </trkpt>
      <trkpt lat="43.9607" lon="-0.14236">
        <ele>109.07</ele>
        <time>2018-06-02T10:20:42Z</time>
      </trkpt>
      <trkpt lat="43.96063" lon="-0.14212">
        <ele>111.08</ele>
        <time>2018-06-02T10:21:15Z</time>
      </trkpt>
      <trkpt lat="43.96064" lon="-0.14186">
        <ele>116.07</ele>
        <time>2018-06-02T10:21:49Z</time>
      </trkpt>
      <trkpt lat="43.96064" lon="-0.14161">
        <ele>116.15</ele>
        <time>2018-06-02T10:22:18Z</time>
      </trkpt>
      <trkpt lat="43.96064" lon="-0.14136">
        <ele>116.27</ele>
        <time>2018-06-02T10:22:43Z</time>
      </trkpt>
      <trkpt lat="43.96064" lon="-0.14111">
        <ele>118.77</ele>
        <time>2018-06-02T10:23:06Z</time>
      </trkpt>
      <trkpt lat="43.96074" lon="-0.14089">
        <ele>129.76</ele>
        <time>2018-06-02T10:24:06Z</time>
      </trkpt>
      <trkpt lat="43.9609" lon="-0.14077">
        <ele>133.76</ele>
        <time>2018-06-02T10:24:34Z</time>
      </trkpt>
      <trkpt lat="43.96107" lon="-0.14069">
        <ele>134.07</ele>
        <time>2018-06-02T10:24:54Z</time>
      </trkpt>
      <trkpt lat="43.96122" lon="-0.14053">
        <ele>134.8</ele>
        <time>2018-06-02T10:25:13Z</time>
      </trkpt>
      <trkpt lat="43.9614" lon="-0.14053">
        <ele>129.07</ele>
        <time>2018-06-02T10:25:53Z</time>
      </trkpt>
      <trkpt lat="43.96158" lon="-0.14047">
        <ele>134.06</ele>
        <time>2018-06-02T10:26:22Z</time>
      </trkpt>
      <trkpt lat="43.96175" lon="-0.1404">
        <ele>136.08</ele>
        <time>2018-06-02T10:26:56Z</time>
      </trkpt>
      <trkpt lat="43.96193" lon="-0.14032">
        <ele>135.98</ele>
        <time>2018-06-02T10:27:19Z</time>
      </trkpt>
      <trkpt lat="43.96208" lon="-0.14019">
        <ele>143.07</ele>
        <time>2018-06-02T10:27:42Z</time>
      </trkpt>
      <trkpt lat="43.96224" lon="-0.14009">
        <ele>141.4</ele>
        <time>2018-06-02T10:28:02Z</time>
      </trkpt>
      <trkpt lat="43.9624" lon="-0.13997">
        <ele>135.07</ele>
        <time>2018-06-02T10:28:29Z</time>
      </trkpt>
      <trkpt lat="43.96255" lon="-0.13981">
        <ele>134.98</ele>
        <time>2018-06-02T10:28:54Z</time>
      </trkpt>
      <trkpt lat="43.96266" lon="-0.13962">
        <ele>141.76</ele>
        <time>2018-06-02T10:29:16Z</time>
      </trkpt>
      <trkpt lat="43.96283" lon="-0.13951">
        <ele>141.19</ele>
        <time>2018-06-02T10:29:39Z</time>
      </trkpt>
      <trkpt lat="43.96299" lon="-0.1394">
        <ele>138.07</ele>
        <time>2018-06-02T10:30:01Z</time>
      </trkpt>
      <trkpt lat="43.96311" lon="-0.1392">
        <ele>137.8</ele>
        <time>2018-06-02T10:30:23Z</time>
      </trkpt>
      <trkpt lat="43.96308" lon="-0.13895">
        <ele>137.08</ele>
        <time>2018-06-02T10:30:43Z</time>
      </trkpt>
      <trkpt lat="43.96309" lon="-0.13869">
        <ele>136.28</ele>
        <time>2018-06-02T10:31:07Z</time>
      </trkpt>
      <trkpt lat="43.96307" lon="-0.13844">
        <ele>137.16</ele>
        <time>2018-06-02T10:31:32Z</time>
      </trkpt>
      <trkpt lat="43.96321" lon="-0.13827">
        <ele>133.05</ele>
        <time>2018-06-02T10:32:09Z</time>
      </trkpt>
      <trkpt lat="43.96336" lon="-0.13812">
        <ele>139.76</ele>
        <time>2018-06-02T10:32:30Z</time>
      </trkpt>
      <trkpt lat="43.96352" lon="-0.13799">
        <ele>137.77</ele>
        <time>2018-06-02T10:33:08Z</time>
      </trkpt>
      <trkpt lat="43.96342" lon="-0.13777">
        <ele>138.06</ele>
        <time>2018-06-02T10:33:54Z</time>
      </trkpt>
      <trkpt lat="43.96334" lon="-0.13754">
        <ele>138.98</ele>
        <time>2018-06-02T10:34:15Z</time>
      </trkpt>
      <trkpt lat="43.96324" lon="-0.13732">
        <ele>138.07</ele>
        <time>2018-06-02T10:34:36Z</time>
      </trkpt>
      <trkpt lat="43.96315" lon="-0.13709">
        <ele>138.07</ele>
        <time>2018-06-02T10:35:07Z</time>
      </trkpt>
      <trkpt lat="43.96318" lon="-0.13684">
        <ele>137.74</ele>
        <time>2018-06-02T10:35:28Z</time>
      </trkpt>
      <trkpt lat="43.96334" lon="-0.13669">
        <ele>140.07</ele>
        <time>2018-06-02T10:35:46Z</time>
      </trkpt>
      <trkpt lat="43.96348" lon="-0.13653">
        <ele>136.38</ele>
        <time>2018-06-02T10:36:07Z</time>
      </trkpt>
      <trkpt lat="43.96361" lon="-0.13635">
        <ele>138.07</ele>
        <time>2018-06-02T10:36:23Z</time>
      </trkpt>
      <trkpt lat="43.96373" lon="-0.13616">
        <ele>138.07</ele>
        <time>2018-06-02T10:36:41Z</time>
      </trkpt>
      <trkpt lat="43.96389" lon="-0.13601">
        <ele>139.04</ele>
        <time>2018-06-02T10:36:59Z</time>
      </trkpt>
      <trkpt lat="43.96403" lon="-0.13586">
        <ele>141.07</ele>
        <time>2018-06-02T10:37:17Z</time>
      </trkpt>
      <trkpt lat="43.96411" lon="-0.13563">
        <ele>134.16</ele>
        <time>2018-06-02T10:37:52Z</time>
      </trkpt>
      <trkpt lat="43.96401" lon="-0.13542">
        <ele>134.16</ele>
        <time>2018-06-02T10:38:09Z</time>
      </trkpt>
      <trkpt lat="43.9639" lon="-0.13522">
        <ele>130.16</ele>
        <time>2018-06-02T10:38:30Z</time>
      </trkpt>
      <trkpt lat="43.96379" lon="-0.13502">
        <ele>129.07</ele>
        <time>2018-06-02T10:38:47Z</time>
      </trkpt>
      <trkpt lat="43.96368" lon="-0.13482">
        <ele>128.35</ele>
        <time>2018-06-02T10:39:06Z</time>
      </trkpt>
      <trkpt lat="43.96365" lon="-0.13457">
        <ele>128.07</ele>
        <time>2018-06-02T10:39:58Z</time>
      </trkpt>
      <trkpt lat="43.96381" lon="-0.13441">
        <ele>130.04</ele>
        <time>2018-06-02T10:40:23Z</time>
      </trkpt>
      <trkpt lat="43.96394" lon="-0.13423">
        <ele>131.07</ele>
        <time>2018-06-02T10:40:41Z</time>
      </trkpt>
      <trkpt lat="43.96407" lon="-0.13405">
        <ele>132.07</ele>
        <time>2018-06-02T10:41:01Z</time>
      </trkpt>
      <trkpt lat="43.96421" lon="-0.13389">
        <ele>131.1</ele>
        <time>2018-06-02T10:41:22Z</time>
      </trkpt>
      <trkpt lat="43.96431" lon="-0.13368">
        <ele>131.19</ele>
        <time>2018-06-02T10:41:51Z</time>
      </trkpt>
      <trkpt lat="43.9643" lon="-0.13341">
        <ele>131.28</ele>
        <time>2018-06-02T10:42:37Z</time>
      </trkpt>
      <trkpt lat="43.96422" lon="-0.13318">
        <ele>129.87</ele>
        <time>2018-06-02T10:43:00Z</time>
      </trkpt>
      <trkpt lat="43.96416" lon="-0.13294">
        <ele>129.31</ele>
        <time>2018-06-02T10:43:24Z</time>
      </trkpt>
      <trkpt lat="43.96406" lon="-0.13272">
        <ele>123.16</ele>
        <time>2018-06-02T10:43:46Z</time>
      </trkpt>
      <trkpt lat="43.96397" lon="-0.1325">
        <ele>125.8</ele>
        <time>2018-06-02T10:44:11Z</time>
      </trkpt>
      <trkpt lat="43.96387" lon="-0.13228">
        <ele>123.16</ele>
        <time>2018-06-02T10:44:45Z</time>
      </trkpt>
      <trkpt lat="43.96376" lon="-0.13208">
        <ele>124.37</ele>
        <time>2018-06-02T10:45:03Z</time>
      </trkpt>
      <trkpt lat="43.96369" lon="-0.13184">
        <ele>122.07</ele>
        <time>2018-06-02T10:45:30Z</time>
      </trkpt>
      <trkpt lat="43.96386" lon="-0.13173">
        <ele>125.07</ele>
        <time>2018-06-02T10:48:15Z</time>
      </trkpt>
      <trkpt lat="43.964" lon="-0.13156">
        <ele>127.04</ele>
        <time>2018-06-02T10:48:32Z</time>
      </trkpt>
      <trkpt lat="43.96415" lon="-0.13139">
        <ele>128.06</ele>
        <time>2018-06-02T10:48:48Z</time>
      </trkpt>
      <trkpt lat="43.96431" lon="-0.13126">
        <ele>124.08</ele>
        <time>2018-06-02T10:49:05Z</time>
      </trkpt>
      <trkpt lat="43.96446" lon="-0.1311">
        <ele>123.16</ele>
        <time>2018-06-02T10:49:22Z</time>
      </trkpt>
      <trkpt lat="43.9646" lon="-0.13094">
        <ele>119.07</ele>
        <time>2018-06-02T10:49:43Z</time>
      </trkpt>
      <trkpt lat="43.96475" lon="-0.13079">
        <ele>119.77</ele>
        <time>2018-06-02T10:49:59Z</time>
      </trkpt>
      <trkpt lat="43.96491" lon="-0.13064">
        <ele>119.16</ele>
        <time>2018-06-02T10:50:16Z</time>
      </trkpt>
      <trkpt lat="43.96507" lon="-0.13052">
        <ele>117.07</ele>
        <time>2018-06-02T10:50:34Z</time>
      </trkpt>
      <trkpt lat="43.96522" lon="-0.13037">
        <ele>115.05</ele>
        <time>2018-06-02T10:50:55Z</time>
      </trkpt>
      <trkpt lat="43.96537" lon="-0.1302">
        <ele>115.08</ele>
        <time>2018-06-02T10:51:19Z</time>
      </trkpt>
      <trkpt lat="43.96552" lon="-0.13005">
        <ele>116.07</ele>
        <time>2018-06-02T10:51:38Z</time>
      </trkpt>
      <trkpt lat="43.96568" lon="-0.12994">
        <ele>115.07</ele>
        <time>2018-06-02T10:51:53Z</time>
      </trkpt>
      <trkpt lat="43.96586" lon="-0.12988">
        <ele>116.06</ele>
        <time>2018-06-02T10:52:13Z</time>
      </trkpt>
      <trkpt lat="43.96604" lon="-0.12989">
        <ele>116.05</ele>
        <time>2018-06-02T10:52:29Z</time>
      </trkpt>
      <trkpt lat="43.96622" lon="-0.12993">
        <ele>111.07</ele>
        <time>2018-06-02T10:52:51Z</time>
      </trkpt>
      <trkpt lat="43.96639" lon="-0.12983">
        <ele>110.37</ele>
        <time>2018-06-02T10:53:09Z</time>
      </trkpt>
      <trkpt lat="43.96654" lon="-0.1297">
        <ele>111.77</ele>
        <time>2018-06-02T10:53:30Z</time>
      </trkpt>
      <trkpt lat="43.96671" lon="-0.12955">
        <ele>120.07</ele>
        <time>2018-06-02T10:53:54Z</time>
      </trkpt>
      <trkpt lat="43.96687" lon="-0.12945">
        <ele>118.97</ele>
        <time>2018-06-02T10:54:11Z</time>
      </trkpt>
      <trkpt lat="43.96697" lon="-0.12924">
        <ele>117.1</ele>
        <time>2018-06-02T10:54:36Z</time>
      </trkpt>
      <trkpt lat="43.96699" lon="-0.12898">
        <ele>110.19</ele>
        <time>2018-06-02T10:54:59Z</time>
      </trkpt>
      <trkpt lat="43.96707" lon="-0.12875">
        <ele>114.37</ele>
        <time>2018-06-02T10:56:02Z</time>
      </trkpt>
      <trkpt lat="43.96725" lon="-0.12868">
        <ele>115.16</ele>
        <time>2018-06-02T10:56:20Z</time>
      </trkpt>
      <trkpt lat="43.96743" lon="-0.12863">
        <ele>115.16</ele>
        <time>2018-06-02T10:56:41Z</time>
      </trkpt>
      <trkpt lat="43.96762" lon="-0.12858">
        <ele>117.83</ele>
        <time>2018-06-02T10:56:59Z</time>
      </trkpt>
      <trkpt lat="43.9678" lon="-0.12853">
        <ele>121.09</ele>
        <time>2018-06-02T10:57:21Z</time>
      </trkpt>
      <trkpt lat="43.96797" lon="-0.12849">
        <ele>121.77</ele>
        <time>2018-06-02T10:57:40Z</time>
      </trkpt>
      <trkpt lat="43.96815" lon="-0.12842">
        <ele>125.86</ele>
        <time>2018-06-02T10:57:59Z</time>
      </trkpt>
      <trkpt lat="43.96833" lon="-0.12841">
        <ele>123.68</ele>
        <time>2018-06-02T10:58:34Z</time>
      </trkpt>
      <trkpt lat="43.96851" lon="-0.12847">
        <ele>122.37</ele>
        <time>2018-06-02T10:59:00Z</time>
      </trkpt>
      <trkpt lat="43.96868" lon="-0.12834">
        <ele>121.98</ele>
        <time>2018-06-02T10:59:22Z</time>
      </trkpt>
      <trkpt lat="43.96885" lon="-0.12826">
        <ele>121.14</ele>
        <time>2018-06-02T10:59:42Z</time>
      </trkpt>
      <trkpt lat="43.96903" lon="-0.1282">
        <ele>120.07</ele>
        <time>2018-06-02T11:00:10Z</time>
      </trkpt>
      <trkpt lat="43.9692" lon="-0.12807">
        <ele>123.17</ele>
        <time>2018-06-02T11:00:29Z</time>
      </trkpt>
      <trkpt lat="43.96937" lon="-0.12799">
        <ele>124.07</ele>
        <time>2018-06-02T11:00:45Z</time>
      </trkpt>
      <trkpt lat="43.96955" lon="-0.1279">
        <ele>127.37</ele>
        <time>2018-06-02T11:01:03Z</time>
      </trkpt>
      <trkpt lat="43.96973" lon="-0.12784">
        <ele>130.28</ele>
        <time>2018-06-02T11:01:41Z</time>
      </trkpt>
      <trkpt lat="43.96989" lon="-0.12773">
        <ele>128.74</ele>
        <time>2018-06-02T11:02:02Z</time>
      </trkpt>
      <trkpt lat="43.97007" lon="-0.12768">
        <ele>129.09</ele>
        <time>2018-06-02T11:02:18Z</time>
      </trkpt>
      <trkpt lat="43.97026" lon="-0.12763">
        <ele>128.07</ele>
        <time>2018-06-02T11:02:35Z</time>
      </trkpt>
      <trkpt lat="43.97044" lon="-0.12759">
        <ele>126.09</ele>
        <time>2018-06-02T11:02:52Z</time>
      </trkpt>
      <trkpt lat="43.97062" lon="-0.12754">
        <ele>125.08</ele>
        <time>2018-06-02T11:03:07Z</time>
      </trkpt>
      <trkpt lat="43.9708" lon="-0.12749">
        <ele>121.11</ele>
        <time>2018-06-02T11:03:30Z</time>
      </trkpt>
      <trkpt lat="43.97097" lon="-0.12743">
        <ele>121.98</ele>
        <time>2018-06-02T11:03:56Z</time>
      </trkpt>
      <trkpt lat="43.97114" lon="-0.12731">
        <ele>128.97</ele>
        <time>2018-06-02T11:04:13Z</time>
      </trkpt>
      <trkpt lat="43.97132" lon="-0.12722">
        <ele>134.06</ele>
        <time>2018-06-02T11:04:31Z</time>
      </trkpt>
      <trkpt lat="43.97149" lon="-0.12711">
        <ele>135.05</ele>
        <time>2018-06-02T11:04:49Z</time>
      </trkpt>
      <trkpt lat="43.97166" lon="-0.12701">
        <ele>136.77</ele>
        <time>2018-06-02T11:05:08Z</time>
      </trkpt>
      <trkpt lat="43.97184" lon="-0.12695">
        <ele>137.07</ele>
        <time>2018-06-02T11:05:22Z</time>
      </trkpt>
      <trkpt lat="43.97202" lon="-0.127">
        <ele>133.19</ele>
        <time>2018-06-02T11:05:39Z</time>
      </trkpt>
      <trkpt lat="43.97211" lon="-0.12722">
        <ele>129.28</ele>
        <time>2018-06-02T11:05:55Z</time>
      </trkpt>
      <trkpt lat="43.97216" lon="-0.12747">
        <ele>130.06</ele>
        <time>2018-06-02T11:06:13Z</time>
      </trkpt>
      <trkpt lat="43.97223" lon="-0.12771">
        <ele>126.37</ele>
        <time>2018-06-02T11:06:36Z</time>
      </trkpt>
      <trkpt lat="43.97241" lon="-0.12783">
        <ele>128.78</ele>
        <time>2018-06-02T11:07:00Z</time>
      </trkpt>
      <trkpt lat="43.97258" lon="-0.12792">
        <ele>129.01</ele>
        <time>2018-06-02T11:07:38Z</time>
      </trkpt>
      <trkpt lat="43.97273" lon="-0.12806">
        <ele>125.07</ele>
        <time>2018-06-02T11:08:05Z</time>
      </trkpt>
      <trkpt lat="43.97287" lon="-0.12823">
        <ele>122.77</ele>
        <time>2018-06-02T11:08:21Z</time>
      </trkpt>
      <trkpt lat="43.97293" lon="-0.12848">
        <ele>121.16</ele>
        <time>2018-06-02T11:08:43Z</time>
      </trkpt>
      <trkpt lat="43.97302" lon="-0.12871">
        <ele>120.87</ele>
        <time>2018-06-02T11:09:03Z</time>
      </trkpt>
      <trkpt lat="43.97307" lon="-0.12895">
        <ele>118.08</ele>
        <time>2018-06-02T11:09:20Z</time>
      </trkpt>
      <trkpt lat="43.97312" lon="-0.1292">
        <ele>117.66</ele>
        <time>2018-06-02T11:09:39Z</time>
      </trkpt>
      <trkpt lat="43.97325" lon="-0.12938">
        <ele>119.37</ele>
        <time>2018-06-02T11:09:59Z</time>
      </trkpt>
      <trkpt lat="43.97342" lon="-0.12949">
        <ele>117.02</ele>
        <time>2018-06-02T11:10:21Z</time>
      </trkpt>
      <trkpt lat="43.9736" lon="-0.12956">
        <ele>118.07</ele>
        <time>2018-06-02T11:10:41Z</time>
      </trkpt>
      <trkpt lat="43.97376" lon="-0.12945">
        <ele>117.16</ele>
        <time>2018-06-02T11:11:01Z</time>
      </trkpt>
      <trkpt lat="43.97389" lon="-0.12925">
        <ele>118.95</ele>
        <time>2018-06-02T11:11:30Z</time>
      </trkpt>
      <trkpt lat="43.97416" lon="-0.12919">
        <ele>109.7</ele>
        <time>2018-06-02T11:11:54Z</time>
      </trkpt>
      <trkpt lat="43.97432" lon="-0.12907">
        <ele>106.07</ele>
        <time>2018-06-02T11:12:25Z</time>
      </trkpt>
      <trkpt lat="43.9745" lon="-0.12903">
        <ele>107.16</ele>
        <time>2018-06-02T11:12:43Z</time>
      </trkpt>
      <trkpt lat="43.97468" lon="-0.12902">
        <ele>110.04</ele>
        <time>2018-06-02T11:13:02Z</time>
      </trkpt>
      <trkpt lat="43.97486" lon="-0.12899">
        <ele>111.07</ele>
        <time>2018-06-02T11:13:21Z</time>
      </trkpt>
      <trkpt lat="43.97504" lon="-0.12895">
        <ele>111.07</ele>
        <time>2018-06-02T11:13:41Z</time>
      </trkpt>
      <trkpt lat="43.97523" lon="-0.12892">
        <ele>112.71</ele>
        <time>2018-06-02T11:13:58Z</time>
      </trkpt>
      <trkpt lat="43.97541" lon="-0.1289">
        <ele>114.07</ele>
        <time>2018-06-02T11:14:19Z</time>
      </trkpt>
      <trkpt lat="43.97561" lon="-0.1289">
        <ele>115.07</ele>
        <time>2018-06-02T11:14:39Z</time>
      </trkpt>
      <trkpt lat="43.9758" lon="-0.12889">
        <ele>115.07</ele>
        <time>2018-06-02T11:14:55Z</time>
      </trkpt>
      <trkpt lat="43.97599" lon="-0.12889">
        <ele>114.07</ele>
        <time>2018-06-02T11:15:11Z</time>
      </trkpt>
      <trkpt lat="43.97617" lon="-0.12889">
        <ele>113.86</ele>
        <time>2018-06-02T11:15:26Z</time>
      </trkpt>
      <trkpt lat="43.97636" lon="-0.12888">
        <ele>112.37</ele>
        <time>2018-06-02T11:15:44Z</time>
      </trkpt>
      <trkpt lat="43.97654" lon="-0.12885">
        <ele>113.07</ele>
        <time>2018-06-02T11:16:06Z</time>
      </trkpt>
      <trkpt lat="43.97673" lon="-0.12882">
        <ele>113.07</ele>
        <time>2018-06-02T11:16:21Z</time>
      </trkpt>
      <trkpt lat="43.97691" lon="-0.1288">
        <ele>112.37</ele>
        <time>2018-06-02T11:16:36Z</time>
      </trkpt>
      <trkpt lat="43.97709" lon="-0.12877">
        <ele>115.04</ele>
        <time>2018-06-02T11:16:58Z</time>
      </trkpt>
      <trkpt lat="43.97728" lon="-0.12877">
        <ele>116.07</ele>
        <time>2018-06-02T11:17:17Z</time>
      </trkpt>
      <trkpt lat="43.97747" lon="-0.12876">
        <ele>117.04</ele>
        <time>2018-06-02T11:17:34Z</time>
      </trkpt>
      <trkpt lat="43.97765" lon="-0.12878">
        <ele>119.01</ele>
        <time>2018-06-02T11:17:54Z</time>
      </trkpt>
      <trkpt lat="43.97783" lon="-0.12878">
        <ele>118.16</ele>
        <time>2018-06-02T11:18:17Z</time>
      </trkpt>
      <trkpt lat="43.97802" lon="-0.1288">
        <ele>117.13</ele>
        <time>2018-06-02T11:18:37Z</time>
      </trkpt>
      <trkpt lat="43.97822" lon="-0.1288">
        <ele>120.04</ele>
        <time>2018-06-02T11:18:57Z</time>
      </trkpt>
      <trkpt lat="43.9784" lon="-0.12883">
        <ele>120.07</ele>
        <time>2018-06-02T11:19:13Z</time>
      </trkpt>
      <trkpt lat="43.97858" lon="-0.12882">
        <ele>124.07</ele>
        <time>2018-06-02T11:19:32Z</time>
      </trkpt>
      <trkpt lat="43.97877" lon="-0.1288">
        <ele>124.13</ele>
        <time>2018-06-02T11:19:48Z</time>
      </trkpt>
      <trkpt lat="43.97895" lon="-0.12878">
        <ele>126.04</ele>
        <time>2018-06-02T11:20:07Z</time>
      </trkpt>
      <trkpt lat="43.97913" lon="-0.12873">
        <ele>127</ele>
        <time>2018-06-02T11:20:35Z</time>
      </trkpt>
      <trkpt lat="43.97926" lon="-0.12855">
        <ele>128.07</ele>
        <time>2018-06-02T11:20:52Z</time>
      </trkpt>
      <trkpt lat="43.97922" lon="-0.12829">
        <ele>129.07</ele>
        <time>2018-06-02T11:21:11Z</time>
      </trkpt>
      <trkpt lat="43.97916" lon="-0.12805">
        <ele>126.14</ele>
        <time>2018-06-02T11:21:31Z</time>
      </trkpt>
      <trkpt lat="43.9791" lon="-0.12781">
        <ele>127.07</ele>
        <time>2018-06-02T11:21:48Z</time>
      </trkpt>
      <trkpt lat="43.97905" lon="-0.12755">
        <ele>126.36</ele>
        <time>2018-06-02T11:22:04Z</time>
      </trkpt>
      <trkpt lat="43.97918" lon="-0.12737">
        <ele>128.07</ele>
        <time>2018-06-02T11:22:21Z</time>
      </trkpt>
      <trkpt lat="43.97934" lon="-0.12727">
        <ele>129.06</ele>
        <time>2018-06-02T11:22:37Z</time>
      </trkpt>
      <trkpt lat="43.97951" lon="-0.12717">
        <ele>125.37</ele>
        <time>2018-06-02T11:22:53Z</time>
      </trkpt>
      <trkpt lat="43.97968" lon="-0.12708">
        <ele>126.16</ele>
        <time>2018-06-02T11:23:09Z</time>
      </trkpt>
      <trkpt lat="43.97985" lon="-0.12699">
        <ele>122.07</ele>
        <time>2018-06-02T11:23:23Z</time>
      </trkpt>
      <trkpt lat="43.98" lon="-0.12684">
        <ele>119.37</ele>
        <time>2018-06-02T11:23:40Z</time>
      </trkpt>
      <trkpt lat="43.98012" lon="-0.12665">
        <ele>116.16</ele>
        <time>2018-06-02T11:23:59Z</time>
      </trkpt>
      <trkpt lat="43.98024" lon="-0.12645">
        <ele>115.98</ele>
        <time>2018-06-02T11:24:17Z</time>
      </trkpt>
      <trkpt lat="43.98036" lon="-0.12626">
        <ele>116.07</ele>
        <time>2018-06-02T11:24:34Z</time>
      </trkpt>
      <trkpt lat="43.98048" lon="-0.12606">
        <ele>114.07</ele>
        <time>2018-06-02T11:24:51Z</time>
      </trkpt>
      <trkpt lat="43.98061" lon="-0.12588">
        <ele>114.05</ele>
        <time>2018-06-02T11:25:06Z</time>
      </trkpt>
      <trkpt lat="43.98073" lon="-0.12567">
        <ele>115.37</ele>
        <time>2018-06-02T11:25:23Z</time>
      </trkpt>
      <trkpt lat="43.98088" lon="-0.12552">
        <ele>115.05</ele>
        <time>2018-06-02T11:25:40Z</time>
      </trkpt>
      <trkpt lat="43.981" lon="-0.12572">
        <ele>114.14</ele>
        <time>2018-06-02T11:25:57Z</time>
      </trkpt>
      <trkpt lat="43.98106" lon="-0.12595">
        <ele>113.07</ele>
        <time>2018-06-02T11:26:12Z</time>
      </trkpt>
      <trkpt lat="43.98111" lon="-0.12621">
        <ele>111.08</ele>
        <time>2018-06-02T11:26:28Z</time>
      </trkpt>
      <trkpt lat="43.98113" lon="-0.12647">
        <ele>112.77</ele>
        <time>2018-06-02T11:26:45Z</time>
      </trkpt>
      <trkpt lat="43.98128" lon="-0.12661">
        <ele>108.86</ele>
        <time>2018-06-02T11:27:21Z</time>
      </trkpt>
      <trkpt lat="43.98149" lon="-0.12655">
        <ele>116.77</ele>
        <time>2018-06-02T11:28:07Z</time>
      </trkpt>
      <trkpt lat="43.98165" lon="-0.12643">
        <ele>117.08</ele>
        <time>2018-06-02T11:28:25Z</time>
      </trkpt>
      <trkpt lat="43.98183" lon="-0.12636">
        <ele>116.07</ele>
        <time>2018-06-02T11:28:53Z</time>
      </trkpt>
      <trkpt lat="43.982" lon="-0.12626">
        <ele>119.06</ele>
        <time>2018-06-02T11:29:13Z</time>
      </trkpt>
      <trkpt lat="43.98219" lon="-0.12627">
        <ele>119.76</ele>
        <time>2018-06-02T11:29:32Z</time>
      </trkpt>
      <trkpt lat="43.98238" lon="-0.12634">
        <ele>123.06</ele>
        <time>2018-06-02T11:29:51Z</time>
      </trkpt>
      <trkpt lat="43.98251" lon="-0.12651">
        <ele>125.01</ele>
        <time>2018-06-02T11:30:12Z</time>
      </trkpt>
      <trkpt lat="43.98246" lon="-0.12677">
        <ele>124.08</ele>
        <time>2018-06-02T11:30:37Z</time>
      </trkpt>
      <trkpt lat="43.98242" lon="-0.12702">
        <ele>124.08</ele>
        <time>2018-06-02T11:30:56Z</time>
      </trkpt>
      <trkpt lat="43.98232" lon="-0.12725">
        <ele>127.13</ele>
        <time>2018-06-02T11:31:18Z</time>
      </trkpt>
      <trkpt lat="43.98224" lon="-0.12748">
        <ele>124.8</ele>
        <time>2018-06-02T11:32:15Z</time>
      </trkpt>
      <trkpt lat="43.98228" lon="-0.12772">
        <ele>129.95</ele>
        <time>2018-06-02T11:32:39Z</time>
      </trkpt>
      <trkpt lat="43.98235" lon="-0.12797">
        <ele>129.99</ele>
        <time>2018-06-02T11:32:57Z</time>
      </trkpt>
      <trkpt lat="43.98244" lon="-0.1282">
        <ele>132.07</ele>
        <time>2018-06-02T11:33:27Z</time>
      </trkpt>
      <trkpt lat="43.98255" lon="-0.12842">
        <ele>131.07</ele>
        <time>2018-06-02T11:33:44Z</time>
      </trkpt>
      <trkpt lat="43.98263" lon="-0.12865">
        <ele>130.77</ele>
        <time>2018-06-02T11:34:02Z</time>
      </trkpt>
      <trkpt lat="43.98279" lon="-0.12876">
        <ele>133.07</ele>
        <time>2018-06-02T11:34:22Z</time>
      </trkpt>
      <trkpt lat="43.98283" lon="-0.12901">
        <ele>133.86</ele>
        <time>2018-06-02T11:34:42Z</time>
      </trkpt>
      <trkpt lat="43.9828" lon="-0.12928">
        <ele>137.07</ele>
        <time>2018-06-02T11:35:06Z</time>
      </trkpt>
      <trkpt lat="43.98296" lon="-0.12939">
        <ele>138.08</ele>
        <time>2018-06-02T11:36:12Z</time>
      </trkpt>
      <trkpt lat="43.98297" lon="-0.12965">
        <ele>135.77</ele>
        <time>2018-06-02T11:36:35Z</time>
      </trkpt>
      <trkpt lat="43.98311" lon="-0.12982">
        <ele>138.04</ele>
        <time>2018-06-02T11:37:26Z</time>
      </trkpt>
      <trkpt lat="43.98329" lon="-0.12986">
        <ele>142.37</ele>
        <time>2018-06-02T12:11:24Z</time>
      </trkpt>
      <trkpt lat="43.98345" lon="-0.12997">
        <ele>139.07</ele>
        <time>2018-06-02T12:12:19Z</time>
      </trkpt>
      <trkpt lat="43.98362" lon="-0.13009">
        <ele>139.76</ele>
        <time>2018-06-02T12:12:40Z</time>
      </trkpt>
      <trkpt lat="43.98362" lon="-0.13036">
        <ele>137.37</ele>
        <time>2018-06-02T12:13:06Z</time>
      </trkpt>
      <trkpt lat="43.98358" lon="-0.13062">
        <ele>137.07</ele>
        <time>2018-06-02T12:13:27Z</time>
      </trkpt>
      <trkpt lat="43.9836" lon="-0.13088">
        <ele>135.99</ele>
        <time>2018-06-02T12:13:48Z</time>
      </trkpt>
      <trkpt lat="43.98364" lon="-0.13114">
        <ele>132.07</ele>
        <time>2018-06-02T12:14:08Z</time>
      </trkpt>
      <trkpt lat="43.98369" lon="-0.13138">
        <ele>129.99</ele>
        <time>2018-06-02T12:14:27Z</time>
      </trkpt>
      <trkpt lat="43.98376" lon="-0.13161">
        <ele>128.13</ele>
        <time>2018-06-02T12:14:45Z</time>
      </trkpt>
      <trkpt lat="43.98384" lon="-0.13184">
        <ele>126.37</ele>
        <time>2018-06-02T12:15:02Z</time>
      </trkpt>
      <trkpt lat="43.98389" lon="-0.1321">
        <ele>126.1</ele>
        <time>2018-06-02T12:15:19Z</time>
      </trkpt>
      <trkpt lat="43.98398" lon="-0.13232">
        <ele>124.07</ele>
        <time>2018-06-02T12:15:39Z</time>
      </trkpt>
      <trkpt lat="43.98406" lon="-0.13255">
        <ele>123.07</ele>
        <time>2018-06-02T12:15:57Z</time>
      </trkpt>
      <trkpt lat="43.9841" lon="-0.1328">
        <ele>121.37</ele>
        <time>2018-06-02T12:16:17Z</time>
      </trkpt>
      <trkpt lat="43.98418" lon="-0.13304">
        <ele>119.07</ele>
        <time>2018-06-02T12:16:33Z</time>
      </trkpt>
      <trkpt lat="43.98431" lon="-0.13321">
        <ele>118.07</ele>
        <time>2018-06-02T12:16:51Z</time>
      </trkpt>
      <trkpt lat="43.98449" lon="-0.13328">
        <ele>118.05</ele>
        <time>2018-06-02T12:17:08Z</time>
      </trkpt>
      <trkpt lat="43.98465" lon="-0.13345">
        <ele>117.04</ele>
        <time>2018-06-02T12:17:29Z</time>
      </trkpt>
      <trkpt lat="43.98478" lon="-0.13362">
        <ele>118.06</ele>
        <time>2018-06-02T12:17:45Z</time>
      </trkpt>
      <trkpt lat="43.98489" lon="-0.13383">
        <ele>118.14</ele>
        <time>2018-06-02T12:18:14Z</time>
      </trkpt>
      <trkpt lat="43.98501" lon="-0.13402">
        <ele>120.07</ele>
        <time>2018-06-02T12:18:32Z</time>
      </trkpt>
      <trkpt lat="43.98516" lon="-0.13419">
        <ele>119.07</ele>
        <time>2018-06-02T12:18:49Z</time>
      </trkpt>
      <trkpt lat="43.9853" lon="-0.13435">
        <ele>120.76</ele>
        <time>2018-06-02T12:19:04Z</time>
      </trkpt>
      <trkpt lat="43.98545" lon="-0.1345">
        <ele>120.36</ele>
        <time>2018-06-02T12:19:21Z</time>
      </trkpt>
      <trkpt lat="43.98559" lon="-0.13465">
        <ele>119.86</ele>
        <time>2018-06-02T12:19:38Z</time>
      </trkpt>
      <trkpt lat="43.98575" lon="-0.13478">
        <ele>120.77</ele>
        <time>2018-06-02T12:19:56Z</time>
      </trkpt>
      <trkpt lat="43.98591" lon="-0.1349">
        <ele>123.02</ele>
        <time>2018-06-02T12:20:13Z</time>
      </trkpt>
      <trkpt lat="43.98609" lon="-0.13499">
        <ele>126.07</ele>
        <time>2018-06-02T12:20:37Z</time>
      </trkpt>
      <trkpt lat="43.98625" lon="-0.13508">
        <ele>127.16</ele>
        <time>2018-06-02T12:20:54Z</time>
      </trkpt>
      <trkpt lat="43.98643" lon="-0.13518">
        <ele>127.07</ele>
        <time>2018-06-02T12:21:10Z</time>
      </trkpt>
      <trkpt lat="43.98661" lon="-0.13524">
        <ele>126.41</ele>
        <time>2018-06-02T12:21:28Z</time>
      </trkpt>
      <trkpt lat="43.98678" lon="-0.13536">
        <ele>127.77</ele>
        <time>2018-06-02T12:21:43Z</time>
      </trkpt>
      <trkpt lat="43.98694" lon="-0.1355">
        <ele>129.77</ele>
        <time>2018-06-02T12:22:02Z</time>
      </trkpt>
      <trkpt lat="43.9871" lon="-0.13563">
        <ele>132.1</ele>
        <time>2018-06-02T12:22:18Z</time>
      </trkpt>
      <trkpt lat="43.98722" lon="-0.13583">
        <ele>133.28</ele>
        <time>2018-06-02T12:22:36Z</time>
      </trkpt>
      <trkpt lat="43.98734" lon="-0.13603">
        <ele>133.07</ele>
        <time>2018-06-02T12:22:53Z</time>
      </trkpt>
      <trkpt lat="43.98746" lon="-0.13622">
        <ele>135.77</ele>
        <time>2018-06-02T12:23:12Z</time>
      </trkpt>
      <trkpt lat="43.98755" lon="-0.13645">
        <ele>135.29</ele>
        <time>2018-06-02T12:23:37Z</time>
      </trkpt>
      <trkpt lat="43.98763" lon="-0.13669">
        <ele>132.13</ele>
        <time>2018-06-02T12:23:58Z</time>
      </trkpt>
      <trkpt lat="43.98779" lon="-0.13683">
        <ele>132.07</ele>
        <time>2018-06-02T12:24:16Z</time>
      </trkpt>
      <trkpt lat="43.98793" lon="-0.13701">
        <ele>133.01</ele>
        <time>2018-06-02T12:24:37Z</time>
      </trkpt>
      <trkpt lat="43.98809" lon="-0.13713">
        <ele>133.98</ele>
        <time>2018-06-02T12:24:54Z</time>
      </trkpt>
      <trkpt lat="43.98824" lon="-0.13728">
        <ele>136.06</ele>
        <time>2018-06-02T12:25:24Z</time>
      </trkpt>
      <trkpt lat="43.98839" lon="-0.13743">
        <ele>137.07</ele>
        <time>2018-06-02T12:25:42Z</time>
      </trkpt>
      <trkpt lat="43.98856" lon="-0.13753">
        <ele>137.08</ele>
        <time>2018-06-02T12:26:03Z</time>
      </trkpt>
      <trkpt lat="43.98874" lon="-0.1376">
        <ele>139.07</ele>
        <time>2018-06-02T12:26:20Z</time>
      </trkpt>
      <trkpt lat="43.98892" lon="-0.13764">
        <ele>141.07</ele>
        <time>2018-06-02T12:26:36Z</time>
      </trkpt>
      <trkpt lat="43.98909" lon="-0.13775">
        <ele>144.83</ele>
        <time>2018-06-02T12:26:56Z</time>
      </trkpt>
      <trkpt lat="43.98927" lon="-0.13779">
        <ele>149.34</ele>
        <time>2018-06-02T12:27:14Z</time>
      </trkpt>
      <trkpt lat="43.98945" lon="-0.13783">
        <ele>150.07</ele>
        <time>2018-06-02T12:27:30Z</time>
      </trkpt>
      <trkpt lat="43.98963" lon="-0.13789">
        <ele>148.07</ele>
        <time>2018-06-02T12:27:47Z</time>
      </trkpt>
      <trkpt lat="43.98981" lon="-0.13795">
        <ele>151.07</ele>
        <time>2018-06-02T12:28:05Z</time>
      </trkpt>
      <trkpt lat="43.99" lon="-0.13803">
        <ele>149.07</ele>
        <time>2018-06-02T12:28:25Z</time>
      </trkpt>
      <trkpt lat="43.99018" lon="-0.13808">
        <ele>150.83</ele>
        <time>2018-06-02T12:28:43Z</time>
      </trkpt>
      <trkpt lat="43.99031" lon="-0.13825">
        <ele>152.37</ele>
        <time>2018-06-02T12:29:03Z</time>
      </trkpt>
      <trkpt lat="43.99024" lon="-0.13849">
        <ele>152.07</ele>
        <time>2018-06-02T12:29:18Z</time>
      </trkpt>
      <trkpt lat="43.99016" lon="-0.13871">
        <ele>151.07</ele>
        <time>2018-06-02T12:29:33Z</time>
      </trkpt>
      <trkpt lat="43.99012" lon="-0.13896">
        <ele>151.08</ele>
        <time>2018-06-02T12:29:51Z</time>
      </trkpt>
      <trkpt lat="43.99005" lon="-0.13921">
        <ele>151.06</ele>
        <time>2018-06-02T12:30:10Z</time>
      </trkpt>
      <trkpt lat="43.98999" lon="-0.13946">
        <ele>149.07</ele>
        <time>2018-06-02T12:30:27Z</time>
      </trkpt>
      <trkpt lat="43.98994" lon="-0.13971">
        <ele>146.8</ele>
        <time>2018-06-02T12:30:43Z</time>
      </trkpt>
      <trkpt lat="43.98985" lon="-0.13993">
        <ele>145.05</ele>
        <time>2018-06-02T12:31:02Z</time>
      </trkpt>
      <trkpt lat="43.9898" lon="-0.14018">
        <ele>147.07</ele>
        <time>2018-06-02T12:31:18Z</time>
      </trkpt>
      <trkpt lat="43.98977" lon="-0.14044">
        <ele>150.07</ele>
        <time>2018-06-02T12:31:35Z</time>
      </trkpt>
      <trkpt lat="43.9897" lon="-0.14069">
        <ele>150.1</ele>
        <time>2018-06-02T12:31:51Z</time>
      </trkpt>
      <trkpt lat="43.98959" lon="-0.14088">
        <ele>147.78</ele>
        <time>2018-06-02T12:32:10Z</time>
      </trkpt>
      <trkpt lat="43.98953" lon="-0.14112">
        <ele>150.13</ele>
        <time>2018-06-02T12:32:26Z</time>
      </trkpt>
      <trkpt lat="43.98949" lon="-0.14137">
        <ele>150.1</ele>
        <time>2018-06-02T12:32:43Z</time>
      </trkpt>
      <trkpt lat="43.98942" lon="-0.14161">
        <ele>151.09</ele>
        <time>2018-06-02T12:32:57Z</time>
      </trkpt>
      <trkpt lat="43.98954" lon="-0.14179">
        <ele>148.98</ele>
        <time>2018-06-02T12:33:33Z</time>
      </trkpt>
      <trkpt lat="43.98973" lon="-0.14186">
        <ele>147.07</ele>
        <time>2018-06-02T12:33:52Z</time>
      </trkpt>
      <trkpt lat="43.9899" lon="-0.14196">
        <ele>147.07</ele>
        <time>2018-06-02T12:34:11Z</time>
      </trkpt>
      <trkpt lat="43.98996" lon="-0.1422">
        <ele>148.68</ele>
        <time>2018-06-02T12:34:34Z</time>
      </trkpt>
      <trkpt lat="43.98999" lon="-0.14246">
        <ele>149.36</ele>
        <time>2018-06-02T12:34:54Z</time>
      </trkpt>
      <trkpt lat="43.98998" lon="-0.14271">
        <ele>148.07</ele>
        <time>2018-06-02T12:35:28Z</time>
      </trkpt>
      <trkpt lat="43.99003" lon="-0.14296">
        <ele>147.77</ele>
        <time>2018-06-02T12:36:08Z</time>
      </trkpt>
      <trkpt lat="43.99009" lon="-0.14319">
        <ele>148.34</ele>
        <time>2018-06-02T12:36:30Z</time>
      </trkpt>
      <trkpt lat="43.99014" lon="-0.14344">
        <ele>149.77</ele>
        <time>2018-06-02T12:36:52Z</time>
      </trkpt>
      <trkpt lat="43.99018" lon="-0.14371">
        <ele>151.07</ele>
        <time>2018-06-02T12:37:17Z</time>
      </trkpt>
      <trkpt lat="43.99027" lon="-0.14393">
        <ele>152.36</ele>
        <time>2018-06-02T12:37:39Z</time>
      </trkpt>
      <trkpt lat="43.99035" lon="-0.14416">
        <ele>146.05</ele>
        <time>2018-06-02T12:38:21Z</time>
      </trkpt>
      <trkpt lat="43.99044" lon="-0.14438">
        <ele>147.77</ele>
        <time>2018-06-02T12:38:57Z</time>
      </trkpt>
      <trkpt lat="43.99055" lon="-0.14458">
        <ele>149.07</ele>
        <time>2018-06-02T12:39:17Z</time>
      </trkpt>
      <trkpt lat="43.99065" lon="-0.1448">
        <ele>148.67</ele>
        <time>2018-06-02T12:39:41Z</time>
      </trkpt>
      <trkpt lat="43.99075" lon="-0.145">
        <ele>150.07</ele>
        <time>2018-06-02T12:40:02Z</time>
      </trkpt>
      <trkpt lat="43.99089" lon="-0.1452">
        <ele>151.04</ele>
        <time>2018-06-02T12:40:22Z</time>
      </trkpt>
      <trkpt lat="43.99104" lon="-0.14534">
        <ele>150.13</ele>
        <time>2018-06-02T12:40:41Z</time>
      </trkpt>
      <trkpt lat="43.99114" lon="-0.14555">
        <ele>152.01</ele>
        <time>2018-06-02T12:41:01Z</time>
      </trkpt>
      <trkpt lat="43.99126" lon="-0.14574">
        <ele>151.01</ele>
        <time>2018-06-02T12:41:20Z</time>
      </trkpt>
      <trkpt lat="43.99139" lon="-0.14592">
        <ele>151.07</ele>
        <time>2018-06-02T12:42:04Z</time>
      </trkpt>
      <trkpt lat="43.99153" lon="-0.1461">
        <ele>150.07</ele>
        <time>2018-06-02T12:42:24Z</time>
      </trkpt>
      <trkpt lat="43.99164" lon="-0.14631">
        <ele>151.07</ele>
        <time>2018-06-02T12:43:09Z</time>
      </trkpt>
      <trkpt lat="43.99178" lon="-0.14648">
        <ele>151.04</ele>
        <time>2018-06-02T12:43:25Z</time>
      </trkpt>
      <trkpt lat="43.99192" lon="-0.14666">
        <ele>150.1</ele>
        <time>2018-06-02T12:43:43Z</time>
      </trkpt>
      <trkpt lat="43.99205" lon="-0.14682">
        <ele>152.77</ele>
        <time>2018-06-02T12:44:08Z</time>
      </trkpt>
      <trkpt lat="43.99224" lon="-0.14689">
        <ele>153.09</ele>
        <time>2018-06-02T12:44:27Z</time>
      </trkpt>
      <trkpt lat="43.9924" lon="-0.14703">
        <ele>155.08</ele>
        <time>2018-06-02T12:44:48Z</time>
      </trkpt>
      <trkpt lat="43.99252" lon="-0.14722">
        <ele>155.98</ele>
        <time>2018-06-02T12:45:06Z</time>
      </trkpt>
      <trkpt lat="43.99267" lon="-0.14738">
        <ele>156.09</ele>
        <time>2018-06-02T12:45:23Z</time>
      </trkpt>
      <trkpt lat="43.99278" lon="-0.1476">
        <ele>156.07</ele>
        <time>2018-06-02T12:45:43Z</time>
      </trkpt>
      <trkpt lat="43.99288" lon="-0.14782">
        <ele>157.13</ele>
        <time>2018-06-02T12:46:04Z</time>
      </trkpt>
      <trkpt lat="43.99299" lon="-0.14802">
        <ele>157.07</ele>
        <time>2018-06-02T12:46:20Z</time>
      </trkpt>
      <trkpt lat="43.9931" lon="-0.14821">
        <ele>155.16</ele>
        <time>2018-06-02T12:46:38Z</time>
      </trkpt>
      <trkpt lat="43.99319" lon="-0.14844">
        <ele>156.98</ele>
        <time>2018-06-02T12:46:56Z</time>
      </trkpt>
      <trkpt lat="43.99324" lon="-0.14869">
        <ele>156.37</ele>
        <time>2018-06-02T12:47:14Z</time>
      </trkpt>
      <trkpt lat="43.99331" lon="-0.14893">
        <ele>157.07</ele>
        <time>2018-06-02T12:47:32Z</time>
      </trkpt>
      <trkpt lat="43.9934" lon="-0.14917">
        <ele>156.07</ele>
        <time>2018-06-02T12:47:48Z</time>
      </trkpt>
      <trkpt lat="43.99348" lon="-0.1494">
        <ele>155.68</ele>
        <time>2018-06-02T12:48:06Z</time>
      </trkpt>
      <trkpt lat="43.99356" lon="-0.14963">
        <ele>156.1</ele>
        <time>2018-06-02T12:48:23Z</time>
      </trkpt>
      <trkpt lat="43.99365" lon="-0.14986">
        <ele>154.16</ele>
        <time>2018-06-02T12:48:43Z</time>
      </trkpt>
      <trkpt lat="43.99374" lon="-0.15009">
        <ele>155.07</ele>
        <time>2018-06-02T12:48:59Z</time>
      </trkpt>
      <trkpt lat="43.99377" lon="-0.15034">
        <ele>152.86</ele>
        <time>2018-06-02T12:49:21Z</time>
      </trkpt>
      <trkpt lat="43.99382" lon="-0.15059">
        <ele>152.07</ele>
        <time>2018-06-02T12:49:40Z</time>
      </trkpt>
      <trkpt lat="43.99381" lon="-0.15085">
        <ele>152.28</ele>
        <time>2018-06-02T12:49:56Z</time>
      </trkpt>
      <trkpt lat="43.9938" lon="-0.15111">
        <ele>151.06</ele>
        <time>2018-06-02T12:50:13Z</time>
      </trkpt>
      <trkpt lat="43.9938" lon="-0.15137">
        <ele>152.99</ele>
        <time>2018-06-02T12:50:30Z</time>
      </trkpt>
      <trkpt lat="43.99381" lon="-0.15164">
        <ele>151.07</ele>
        <time>2018-06-02T12:50:47Z</time>
      </trkpt>
      <trkpt lat="43.99381" lon="-0.1519">
        <ele>152.14</ele>
        <time>2018-06-02T12:51:04Z</time>
      </trkpt>
      <trkpt lat="43.99384" lon="-0.15216">
        <ele>152.07</ele>
        <time>2018-06-02T12:51:22Z</time>
      </trkpt>
      <trkpt lat="43.99393" lon="-0.15238">
        <ele>153.1</ele>
        <time>2018-06-02T12:51:40Z</time>
      </trkpt>
      <trkpt lat="43.99404" lon="-0.15258">
        <ele>151.8</ele>
        <time>2018-06-02T12:51:58Z</time>
      </trkpt>
      <trkpt lat="43.99417" lon="-0.15276">
        <ele>152.4</ele>
        <time>2018-06-02T12:52:20Z</time>
      </trkpt>
      <trkpt lat="43.99431" lon="-0.15292">
        <ele>151.37</ele>
        <time>2018-06-02T12:52:35Z</time>
      </trkpt>
      <trkpt lat="43.99445" lon="-0.1531">
        <ele>148.17</ele>
        <time>2018-06-02T12:52:54Z</time>
      </trkpt>
      <trkpt lat="43.99457" lon="-0.15329">
        <ele>147.08</ele>
        <time>2018-06-02T12:53:13Z</time>
      </trkpt>
      <trkpt lat="43.99469" lon="-0.15351">
        <ele>146.05</ele>
        <time>2018-06-02T12:53:31Z</time>
      </trkpt>
      <trkpt lat="43.99479" lon="-0.15373">
        <ele>145.1</ele>
        <time>2018-06-02T12:53:47Z</time>
      </trkpt>
      <trkpt lat="43.99488" lon="-0.15396">
        <ele>146.07</ele>
        <time>2018-06-02T12:54:03Z</time>
      </trkpt>
      <trkpt lat="43.99496" lon="-0.15418">
        <ele>147.07</ele>
        <time>2018-06-02T12:54:20Z</time>
      </trkpt>
      <trkpt lat="43.99503" lon="-0.15442">
        <ele>149.01</ele>
        <time>2018-06-02T12:54:36Z</time>
      </trkpt>
      <trkpt lat="43.9951" lon="-0.15465">
        <ele>148.35</ele>
        <time>2018-06-02T12:54:56Z</time>
      </trkpt>
      <trkpt lat="43.99517" lon="-0.15488">
        <ele>148.07</ele>
        <time>2018-06-02T12:55:10Z</time>
      </trkpt>
      <trkpt lat="43.99524" lon="-0.15512">
        <ele>147.07</ele>
        <time>2018-06-02T12:55:29Z</time>
      </trkpt>
      <trkpt lat="43.99532" lon="-0.15535">
        <ele>144.07</ele>
        <time>2018-06-02T12:55:45Z</time>
      </trkpt>
      <trkpt lat="43.99538" lon="-0.15559">
        <ele>145.08</ele>
        <time>2018-06-02T12:56:02Z</time>
      </trkpt>
      <trkpt lat="43.99543" lon="-0.15583">
        <ele>143.07</ele>
        <time>2018-06-02T12:56:19Z</time>
      </trkpt>
      <trkpt lat="43.99552" lon="-0.15606">
        <ele>140.37</ele>
        <time>2018-06-02T12:56:39Z</time>
      </trkpt>
      <trkpt lat="43.99559" lon="-0.15629">
        <ele>140.07</ele>
        <time>2018-06-02T12:56:55Z</time>
      </trkpt>
      <trkpt lat="43.99571" lon="-0.15649">
        <ele>141.05</ele>
        <time>2018-06-02T12:57:13Z</time>
      </trkpt>
      <trkpt lat="43.99585" lon="-0.15664">
        <ele>139.07</ele>
        <time>2018-06-02T12:57:29Z</time>
      </trkpt>
      <trkpt lat="43.996" lon="-0.15682">
        <ele>135.16</ele>
        <time>2018-06-02T12:57:49Z</time>
      </trkpt>
      <trkpt lat="43.99617" lon="-0.15693">
        <ele>133.07</ele>
        <time>2018-06-02T12:58:06Z</time>
      </trkpt>
      <trkpt lat="43.99632" lon="-0.15708">
        <ele>130.04</ele>
        <time>2018-06-02T12:58:22Z</time>
      </trkpt>
      <trkpt lat="43.99649" lon="-0.15715">
        <ele>126.28</ele>
        <time>2018-06-02T12:58:42Z</time>
      </trkpt>
      <trkpt lat="43.99667" lon="-0.15722">
        <ele>123.07</ele>
        <time>2018-06-02T13:00:00Z</time>
      </trkpt>
      <trkpt lat="43.99684" lon="-0.15732">
        <ele>124.07</ele>
        <time>2018-06-02T13:00:17Z</time>
      </trkpt>
      <trkpt lat="43.99699" lon="-0.15746">
        <ele>124.1</ele>
        <time>2018-06-02T13:00:29Z</time>
      </trkpt>
      <trkpt lat="43.9971" lon="-0.15768">
        <ele>128.77</ele>
        <time>2018-06-02T13:00:48Z</time>
      </trkpt>
      <trkpt lat="43.99716" lon="-0.15792">
        <ele>133.86</ele>
        <time>2018-06-02T13:01:09Z</time>
      </trkpt>
      <trkpt lat="43.99721" lon="-0.15817">
        <ele>136.09</ele>
        <time>2018-06-02T13:01:32Z</time>
      </trkpt>
      <trkpt lat="43.9974" lon="-0.15814">
        <ele>140.04</ele>
        <time>2018-06-02T13:01:59Z</time>
      </trkpt>
      <trkpt lat="43.99758" lon="-0.15812">
        <ele>146.77</ele>
        <time>2018-06-02T13:02:22Z</time>
      </trkpt>
      <trkpt lat="43.99776" lon="-0.15814">
        <ele>148.04</ele>
        <time>2018-06-02T13:02:39Z</time>
      </trkpt>
      <trkpt lat="43.99795" lon="-0.15815">
        <ele>149.08</ele>
        <time>2018-06-02T13:02:58Z</time>
      </trkpt>
      <trkpt lat="43.99814" lon="-0.15819">
        <ele>151.37</ele>
        <time>2018-06-02T13:03:17Z</time>
      </trkpt>
      <trkpt lat="43.99832" lon="-0.15821">
        <ele>152.06</ele>
        <time>2018-06-02T13:03:33Z</time>
      </trkpt>
      <trkpt lat="43.99851" lon="-0.15823">
        <ele>150.01</ele>
        <time>2018-06-02T13:03:52Z</time>
      </trkpt>
      <trkpt lat="43.99869" lon="-0.15825">
        <ele>149.98</ele>
        <time>2018-06-02T13:04:12Z</time>
      </trkpt>
      <trkpt lat="43.99888" lon="-0.15825">
        <ele>148.16</ele>
        <time>2018-06-02T13:04:30Z</time>
      </trkpt>
      <trkpt lat="43.99907" lon="-0.15825">
        <ele>149.07</ele>
        <time>2018-06-02T13:04:47Z</time>
      </trkpt>
      <trkpt lat="43.99925" lon="-0.15825">
        <ele>150.06</ele>
        <time>2018-06-02T13:05:04Z</time>
      </trkpt>
      <trkpt lat="43.99944" lon="-0.15824">
        <ele>149.07</ele>
        <time>2018-06-02T13:05:23Z</time>
      </trkpt>
      <trkpt lat="43.99962" lon="-0.15822">
        <ele>149.06</ele>
        <time>2018-06-02T13:05:39Z</time>
      </trkpt>
      <trkpt lat="43.99981" lon="-0.15822">
        <ele>148.77</ele>
        <time>2018-06-02T13:05:59Z</time>
      </trkpt>
      <trkpt lat="44" lon="-0.15821">
        <ele>151.05</ele>
        <time>2018-06-02T13:06:15Z</time>
      </trkpt>
      <trkpt lat="44.00019" lon="-0.15821">
        <ele>150.1</ele>
        <time>2018-06-02T13:06:31Z</time>
      </trkpt>
      <trkpt lat="44.00037" lon="-0.1582">
        <ele>150.07</ele>
        <time>2018-06-02T13:06:47Z</time>
      </trkpt>
      <trkpt lat="44.00056" lon="-0.15817">
        <ele>150.07</ele>
        <time>2018-06-02T13:07:04Z</time>
      </trkpt>
      <trkpt lat="44.00074" lon="-0.15815">
        <ele>149.07</ele>
        <time>2018-06-02T13:07:20Z</time>
      </trkpt>
      <trkpt lat="44.00093" lon="-0.15816">
        <ele>149.07</ele>
        <time>2018-06-02T13:07:38Z</time>
      </trkpt>
      <trkpt lat="44.00102" lon="-0.15837">
        <ele>150.98</ele>
        <time>2018-06-02T13:07:55Z</time>
      </trkpt>
      <trkpt lat="44.00109" lon="-0.15861">
        <ele>151.07</ele>
        <time>2018-06-02T13:08:14Z</time>
      </trkpt>
      <trkpt lat="44.00112" lon="-0.15886">
        <ele>151.07</ele>
        <time>2018-06-02T13:08:30Z</time>
      </trkpt>
      <trkpt lat="44.00112" lon="-0.15911">
        <ele>152.77</ele>
        <time>2018-06-02T13:08:47Z</time>
      </trkpt>
      <trkpt lat="44.00112" lon="-0.15937">
        <ele>153.06</ele>
        <time>2018-06-02T13:09:05Z</time>
      </trkpt>
      <trkpt lat="44.00114" lon="-0.15962">
        <ele>151.07</ele>
        <time>2018-06-02T13:09:24Z</time>
      </trkpt>
      <trkpt lat="44.00116" lon="-0.15986">
        <ele>151.09</ele>
        <time>2018-06-02T13:09:41Z</time>
      </trkpt>
      <trkpt lat="44.00117" lon="-0.16012">
        <ele>149.98</ele>
        <time>2018-06-02T13:09:59Z</time>
      </trkpt>
      <trkpt lat="44.00121" lon="-0.16038">
        <ele>152.07</ele>
        <time>2018-06-02T13:10:18Z</time>
      </trkpt>
      <trkpt lat="44.00123" lon="-0.16063">
        <ele>154.06</ele>
        <time>2018-06-02T13:10:38Z</time>
      </trkpt>
      <trkpt lat="44.00121" lon="-0.16089">
        <ele>155.77</ele>
        <time>2018-06-02T13:10:56Z</time>
      </trkpt>
      <trkpt lat="44.00121" lon="-0.16115">
        <ele>158.08</ele>
        <time>2018-06-02T13:11:15Z</time>
      </trkpt>
      <trkpt lat="44.00122" lon="-0.16142">
        <ele>154.87</ele>
        <time>2018-06-02T13:11:34Z</time>
      </trkpt>
      <trkpt lat="44.00118" lon="-0.16167">
        <ele>154.28</ele>
        <time>2018-06-02T13:11:51Z</time>
      </trkpt>
      <trkpt lat="44.00116" lon="-0.16192">
        <ele>154.76</ele>
        <time>2018-06-02T13:12:07Z</time>
      </trkpt>
      <trkpt lat="44.0011" lon="-0.16217">
        <ele>153.33</ele>
        <time>2018-06-02T13:12:32Z</time>
      </trkpt>
      <trkpt lat="44.00104" lon="-0.16242">
        <ele>153.07</ele>
        <time>2018-06-02T13:12:50Z</time>
      </trkpt>
      <trkpt lat="44.00099" lon="-0.16266">
        <ele>150.09</ele>
        <time>2018-06-02T13:13:27Z</time>
      </trkpt>
      <trkpt lat="44.00094" lon="-0.16291">
        <ele>150.07</ele>
        <time>2018-06-02T13:13:44Z</time>
      </trkpt>
      <trkpt lat="44.0009" lon="-0.16316">
        <ele>148.37</ele>
        <time>2018-06-02T13:14:03Z</time>
      </trkpt>
      <trkpt lat="44.00086" lon="-0.16341">
        <ele>149.07</ele>
        <time>2018-06-02T13:14:42Z</time>
      </trkpt>
      <trkpt lat="44.00081" lon="-0.16365">
        <ele>147.01</ele>
        <time>2018-06-02T13:14:58Z</time>
      </trkpt>
      <trkpt lat="44.00079" lon="-0.16392">
        <ele>148.08</ele>
        <time>2018-06-02T13:15:13Z</time>
      </trkpt>
      <trkpt lat="44.00073" lon="-0.16416">
        <ele>149.07</ele>
        <time>2018-06-02T13:15:28Z</time>
      </trkpt>
      <trkpt lat="44.00069" lon="-0.16441">
        <ele>151.07</ele>
        <time>2018-06-02T13:15:43Z</time>
      </trkpt>
      <trkpt lat="44.00063" lon="-0.16465">
        <ele>149.1</ele>
        <time>2018-06-02T13:16:02Z</time>
      </trkpt>
      <trkpt lat="44.00058" lon="-0.1649">
        <ele>148.98</ele>
        <time>2018-06-02T13:16:23Z</time>
      </trkpt>
      <trkpt lat="44.00055" lon="-0.16515">
        <ele>150.09</ele>
        <time>2018-06-02T13:16:41Z</time>
      </trkpt>
      <trkpt lat="44.0005" lon="-0.1654">
        <ele>149.37</ele>
        <time>2018-06-02T13:16:59Z</time>
      </trkpt>
      <trkpt lat="44.00047" lon="-0.16565">
        <ele>150.07</ele>
        <time>2018-06-02T13:17:14Z</time>
      </trkpt>
      <trkpt lat="44.0004" lon="-0.16589">
        <ele>151.98</ele>
        <time>2018-06-02T13:17:31Z</time>
      </trkpt>
      <trkpt lat="44.00035" lon="-0.16614">
        <ele>150.07</ele>
        <time>2018-06-02T13:17:49Z</time>
      </trkpt>
      <trkpt lat="44.00032" lon="-0.1664">
        <ele>148.37</ele>
        <time>2018-06-02T13:18:06Z</time>
      </trkpt>
      <trkpt lat="44.00027" lon="-0.16665">
        <ele>149.07</ele>
        <time>2018-06-02T13:18:24Z</time>
      </trkpt>
      <trkpt lat="44.00019" lon="-0.16688">
        <ele>147.84</ele>
        <time>2018-06-02T13:18:42Z</time>
      </trkpt>
      <trkpt lat="44.00011" lon="-0.16713">
        <ele>150.07</ele>
        <time>2018-06-02T13:18:59Z</time>
      </trkpt>
      <trkpt lat="44.00005" lon="-0.16737">
        <ele>150.37</ele>
        <time>2018-06-02T13:19:17Z</time>
      </trkpt>
      <trkpt lat="43.99997" lon="-0.1676">
        <ele>150.07</ele>
        <time>2018-06-02T13:19:35Z</time>
      </trkpt>
      <trkpt lat="43.99989" lon="-0.16784">
        <ele>149.1</ele>
        <time>2018-06-02T13:19:52Z</time>
      </trkpt>
      <trkpt lat="43.99982" lon="-0.16808">
        <ele>149.09</ele>
        <time>2018-06-02T13:20:10Z</time>
      </trkpt>
      <trkpt lat="43.99975" lon="-0.16833">
        <ele>149.37</ele>
        <time>2018-06-02T13:20:28Z</time>
      </trkpt>
      <trkpt lat="43.99968" lon="-0.16857">
        <ele>149.07</ele>
        <time>2018-06-02T13:20:45Z</time>
      </trkpt>
      <trkpt lat="43.9996" lon="-0.16881">
        <ele>146.16</ele>
        <time>2018-06-02T13:21:05Z</time>
      </trkpt>
      <trkpt lat="43.99953" lon="-0.16906">
        <ele>146.07</ele>
        <time>2018-06-02T13:21:22Z</time>
      </trkpt>
      <trkpt lat="43.99946" lon="-0.16929">
        <ele>145.07</ele>
        <time>2018-06-02T13:21:39Z</time>
      </trkpt>
      <trkpt lat="43.99938" lon="-0.16952">
        <ele>145.01</ele>
        <time>2018-06-02T13:22:00Z</time>
      </trkpt>
      <trkpt lat="43.99929" lon="-0.16975">
        <ele>144.07</ele>
        <time>2018-06-02T13:22:19Z</time>
      </trkpt>
      <trkpt lat="43.9992" lon="-0.16999">
        <ele>144.07</ele>
        <time>2018-06-02T13:22:35Z</time>
      </trkpt>
      <trkpt lat="43.99912" lon="-0.17022">
        <ele>144.77</ele>
        <time>2018-06-02T13:22:52Z</time>
      </trkpt>
      <trkpt lat="43.99905" lon="-0.17047">
        <ele>144.04</ele>
        <time>2018-06-02T13:23:10Z</time>
      </trkpt>
      <trkpt lat="43.99897" lon="-0.1707">
        <ele>144.04</ele>
        <time>2018-06-02T13:23:30Z</time>
      </trkpt>
      <trkpt lat="43.99891" lon="-0.17095">
        <ele>143.98</ele>
        <time>2018-06-02T13:23:48Z</time>
      </trkpt>
      <trkpt lat="43.99886" lon="-0.17119">
        <ele>145.75</ele>
        <time>2018-06-02T13:24:04Z</time>
      </trkpt>
      <trkpt lat="43.99886" lon="-0.17145">
        <ele>144.07</ele>
        <time>2018-06-02T13:24:26Z</time>
      </trkpt>
      <trkpt lat="43.99891" lon="-0.1717">
        <ele>145.01</ele>
        <time>2018-06-02T13:24:44Z</time>
      </trkpt>
      <trkpt lat="43.99895" lon="-0.17195">
        <ele>143.1</ele>
        <time>2018-06-02T13:24:59Z</time>
      </trkpt>
      <trkpt lat="43.999" lon="-0.17221">
        <ele>144.07</ele>
        <time>2018-06-02T13:25:18Z</time>
      </trkpt>
      <trkpt lat="43.99902" lon="-0.17247">
        <ele>145.07</ele>
        <time>2018-06-02T13:25:37Z</time>
      </trkpt>
      <trkpt lat="43.99903" lon="-0.17273">
        <ele>144.07</ele>
        <time>2018-06-02T13:25:53Z</time>
      </trkpt>
      <trkpt lat="43.99905" lon="-0.17299">
        <ele>141.46</ele>
        <time>2018-06-02T13:26:11Z</time>
      </trkpt>
      <trkpt lat="43.9989" lon="-0.17313">
        <ele>145.07</ele>
        <time>2018-06-02T13:26:41Z</time>
      </trkpt>
      <trkpt lat="43.99873" lon="-0.17303">
        <ele>143.07</ele>
        <time>2018-06-02T13:27:03Z</time>
      </trkpt>
      <trkpt lat="43.99855" lon="-0.17293">
        <ele>141.37</ele>
        <time>2018-06-02T13:27:23Z</time>
      </trkpt>
      <trkpt lat="43.99836" lon="-0.17288">
        <ele>142.07</ele>
        <time>2018-06-02T13:27:43Z</time>
      </trkpt>
      <trkpt lat="43.99818" lon="-0.17281">
        <ele>142.08</ele>
        <time>2018-06-02T13:28:02Z</time>
      </trkpt>
      <trkpt lat="43.99799" lon="-0.17279">
        <ele>141.37</ele>
        <time>2018-06-02T13:28:23Z</time>
      </trkpt>
      <trkpt lat="43.99781" lon="-0.17272">
        <ele>139.77</ele>
        <time>2018-06-02T13:28:41Z</time>
      </trkpt>
      <trkpt lat="43.99763" lon="-0.17266">
        <ele>137.09</ele>
        <time>2018-06-02T13:29:23Z</time>
      </trkpt>
      <trkpt lat="43.99744" lon="-0.17263">
        <ele>137.08</ele>
        <time>2018-06-02T13:29:41Z</time>
      </trkpt>
      <trkpt lat="43.99725" lon="-0.17261">
        <ele>140.77</ele>
        <time>2018-06-02T13:30:00Z</time>
      </trkpt>
      <trkpt lat="43.99706" lon="-0.17258">
        <ele>140.09</ele>
        <time>2018-06-02T13:30:16Z</time>
      </trkpt>
      <trkpt lat="43.99689" lon="-0.17265">
        <ele>142.16</ele>
        <time>2018-06-02T13:30:36Z</time>
      </trkpt>
      <trkpt lat="43.9967" lon="-0.17266">
        <ele>143.04</ele>
        <time>2018-06-02T13:30:56Z</time>
      </trkpt>
      <trkpt lat="43.99652" lon="-0.17261">
        <ele>139.17</ele>
        <time>2018-06-02T13:31:14Z</time>
      </trkpt>
      <trkpt lat="43.99634" lon="-0.17256">
        <ele>135.16</ele>
        <time>2018-06-02T13:31:41Z</time>
      </trkpt>
      <trkpt lat="43.99616" lon="-0.17262">
        <ele>137.97</ele>
        <time>2018-06-02T13:31:59Z</time>
      </trkpt>
      <trkpt lat="43.99597" lon="-0.17267">
        <ele>139.85</ele>
        <time>2018-06-02T13:32:16Z</time>
      </trkpt>
      <trkpt lat="43.99579" lon="-0.17271">
        <ele>141.06</ele>
        <time>2018-06-02T13:32:33Z</time>
      </trkpt>
      <trkpt lat="43.99562" lon="-0.17278">
        <ele>144.06</ele>
        <time>2018-06-02T13:32:50Z</time>
      </trkpt>
      <trkpt lat="43.99544" lon="-0.17283">
        <ele>142.16</ele>
        <time>2018-06-02T13:33:09Z</time>
      </trkpt>
      <trkpt lat="43.99526" lon="-0.17287">
        <ele>140.07</ele>
        <time>2018-06-02T13:33:34Z</time>
      </trkpt>
      <trkpt lat="43.99507" lon="-0.17281">
        <ele>137.37</ele>
        <time>2018-06-02T13:34:21Z</time>
      </trkpt>
      <trkpt lat="43.99495" lon="-0.17261">
        <ele>139.47</ele>
        <time>2018-06-02T13:34:40Z</time>
      </trkpt>
      <trkpt lat="43.99482" lon="-0.17242">
        <ele>140.77</ele>
        <time>2018-06-02T13:35:00Z</time>
      </trkpt>
      <trkpt lat="43.99469" lon="-0.17226">
        <ele>142.07</ele>
        <time>2018-06-02T13:35:21Z</time>
      </trkpt>
      <trkpt lat="43.99458" lon="-0.17205">
        <ele>135.38</ele>
        <time>2018-06-02T13:35:39Z</time>
      </trkpt>
      <trkpt lat="43.99446" lon="-0.17185">
        <ele>135.77</ele>
        <time>2018-06-02T13:35:56Z</time>
      </trkpt>
      <trkpt lat="43.99434" lon="-0.17165">
        <ele>136.83</ele>
        <time>2018-06-02T13:36:17Z</time>
      </trkpt>
      <trkpt lat="43.9942" lon="-0.17147">
        <ele>135</ele>
        <time>2018-06-02T13:36:36Z</time>
      </trkpt>
      <trkpt lat="43.99407" lon="-0.17129">
        <ele>134.1</ele>
        <time>2018-06-02T13:36:54Z</time>
      </trkpt>
      <trkpt lat="43.99394" lon="-0.17112">
        <ele>136.37</ele>
        <time>2018-06-02T13:37:13Z</time>
      </trkpt>
      <trkpt lat="43.99381" lon="-0.17094">
        <ele>136.1</ele>
        <time>2018-06-02T13:37:34Z</time>
      </trkpt>
      <trkpt lat="43.99367" lon="-0.17078">
        <ele>135.98</ele>
        <time>2018-06-02T13:37:51Z</time>
      </trkpt>
      <trkpt lat="43.99352" lon="-0.17063">
        <ele>133.86</ele>
        <time>2018-06-02T13:38:10Z</time>
      </trkpt>
      <trkpt lat="43.99335" lon="-0.17053">
        <ele>135.07</ele>
        <time>2018-06-02T13:38:54Z</time>
      </trkpt>
      <trkpt lat="43.99318" lon="-0.1706">
        <ele>137.07</ele>
        <time>2018-06-02T13:39:10Z</time>
      </trkpt>
      <trkpt lat="43.993" lon="-0.17067">
        <ele>138.1</ele>
        <time>2018-06-02T13:39:30Z</time>
      </trkpt>
      <trkpt lat="43.99281" lon="-0.17072">
        <ele>137.16</ele>
        <time>2018-06-02T13:39:49Z</time>
      </trkpt>
      <trkpt lat="43.99264" lon="-0.17081">
        <ele>138.07</ele>
        <time>2018-06-02T13:40:07Z</time>
      </trkpt>
      <trkpt lat="43.99245" lon="-0.17083">
        <ele>136.4</ele>
        <time>2018-06-02T13:40:24Z</time>
      </trkpt>
      <trkpt lat="43.99227" lon="-0.1709">
        <ele>136.07</ele>
        <time>2018-06-02T13:40:39Z</time>
      </trkpt>
      <trkpt lat="43.99208" lon="-0.17089">
        <ele>134.07</ele>
        <time>2018-06-02T13:40:56Z</time>
      </trkpt>
      <trkpt lat="43.9919" lon="-0.17087">
        <ele>135.76</ele>
        <time>2018-06-02T13:41:10Z</time>
      </trkpt>
      <trkpt lat="43.99172" lon="-0.17089">
        <ele>135.07</ele>
        <time>2018-06-02T13:41:25Z</time>
      </trkpt>
      <trkpt lat="43.99155" lon="-0.17098">
        <ele>134.77</ele>
        <time>2018-06-02T13:41:41Z</time>
      </trkpt>
      <trkpt lat="43.99141" lon="-0.17116">
        <ele>135.07</ele>
        <time>2018-06-02T13:41:59Z</time>
      </trkpt>
      <trkpt lat="43.99128" lon="-0.17133">
        <ele>132.17</ele>
        <time>2018-06-02T13:42:14Z</time>
      </trkpt>
      <trkpt lat="43.99113" lon="-0.17148">
        <ele>131.07</ele>
        <time>2018-06-02T13:42:30Z</time>
      </trkpt>
      <trkpt lat="43.991" lon="-0.17167">
        <ele>132.79</ele>
        <time>2018-06-02T13:42:47Z</time>
      </trkpt>
      <trkpt lat="43.99087" lon="-0.17184">
        <ele>132.77</ele>
        <time>2018-06-02T13:43:03Z</time>
      </trkpt>
      <trkpt lat="43.99073" lon="-0.17201">
        <ele>134.08</ele>
        <time>2018-06-02T13:43:20Z</time>
      </trkpt>
      <trkpt lat="43.99058" lon="-0.17217">
        <ele>135.07</ele>
        <time>2018-06-02T13:43:37Z</time>
      </trkpt>
      <trkpt lat="43.99044" lon="-0.17233">
        <ele>134.38</ele>
        <time>2018-06-02T13:43:54Z</time>
      </trkpt>
      <trkpt lat="43.99043" lon="-0.17208">
        <ele>135.05</ele>
        <time>2018-06-02T13:44:11Z</time>
      </trkpt>
      <trkpt lat="43.9905" lon="-0.17183">
        <ele>133.07</ele>
        <time>2018-06-02T13:44:28Z</time>
      </trkpt>
      <trkpt lat="43.99057" lon="-0.1716">
        <ele>132.07</ele>
        <time>2018-06-02T13:44:48Z</time>
      </trkpt>
      <trkpt lat="43.99063" lon="-0.17136">
        <ele>133.07</ele>
        <time>2018-06-02T13:45:07Z</time>
      </trkpt>
      <trkpt lat="43.9907" lon="-0.17113">
        <ele>132.07</ele>
        <time>2018-06-02T13:45:26Z</time>
      </trkpt>
      <trkpt lat="43.99075" lon="-0.17088">
        <ele>131.07</ele>
        <time>2018-06-02T13:46:13Z</time>
      </trkpt>
      <trkpt lat="43.99084" lon="-0.17064">
        <ele>133.77</ele>
        <time>2018-06-02T13:46:34Z</time>
      </trkpt>
      <trkpt lat="43.9909" lon="-0.1704">
        <ele>134.07</ele>
        <time>2018-06-02T13:46:54Z</time>
      </trkpt>
      <trkpt lat="43.99095" lon="-0.17016">
        <ele>133.98</ele>
        <time>2018-06-02T13:47:16Z</time>
      </trkpt>
      <trkpt lat="43.99102" lon="-0.16992">
        <ele>132.07</ele>
        <time>2018-06-02T13:47:34Z</time>
      </trkpt>
      <trkpt lat="43.99105" lon="-0.16967">
        <ele>133.04</ele>
        <time>2018-06-02T13:47:55Z</time>
      </trkpt>
      <trkpt lat="43.99105" lon="-0.16941">
        <ele>134.28</ele>
        <time>2018-06-02T13:48:13Z</time>
      </trkpt>
      <trkpt lat="43.991" lon="-0.16917">
        <ele>136.07</ele>
        <time>2018-06-02T13:48:30Z</time>
      </trkpt>
      <trkpt lat="43.9909" lon="-0.16896">
        <ele>135.75</ele>
        <time>2018-06-02T13:49:05Z</time>
      </trkpt>
      <trkpt lat="43.99074" lon="-0.16881">
        <ele>136.07</ele>
        <time>2018-06-02T13:49:38Z</time>
      </trkpt>
      <trkpt lat="43.9907" lon="-0.16857">
        <ele>136.77</ele>
        <time>2018-06-02T13:49:59Z</time>
      </trkpt>
      <trkpt lat="43.99052" lon="-0.16848">
        <ele>135.06</ele>
        <time>2018-06-02T13:50:30Z</time>
      </trkpt>
      <trkpt lat="43.99035" lon="-0.16858">
        <ele>137.07</ele>
        <time>2018-06-02T13:50:49Z</time>
      </trkpt>
      <trkpt lat="43.99018" lon="-0.16868">
        <ele>136.07</ele>
        <time>2018-06-02T13:51:07Z</time>
      </trkpt>
      <trkpt lat="43.99001" lon="-0.16875">
        <ele>137.07</ele>
        <time>2018-06-02T13:51:26Z</time>
      </trkpt>
      <trkpt lat="43.98984" lon="-0.16886">
        <ele>136.07</ele>
        <time>2018-06-02T13:51:44Z</time>
      </trkpt>
      <trkpt lat="43.98966" lon="-0.16893">
        <ele>136.15</ele>
        <time>2018-06-02T13:52:07Z</time>
      </trkpt>
      <trkpt lat="43.98949" lon="-0.16902">
        <ele>135.07</ele>
        <time>2018-06-02T13:52:27Z</time>
      </trkpt>
      <trkpt lat="43.98932" lon="-0.16912">
        <ele>134.77</ele>
        <time>2018-06-02T13:52:48Z</time>
      </trkpt>
      <trkpt lat="43.98914" lon="-0.16919">
        <ele>136.05</ele>
        <time>2018-06-02T13:53:09Z</time>
      </trkpt>
      <trkpt lat="43.98898" lon="-0.16931">
        <ele>137.07</ele>
        <time>2018-06-02T13:53:31Z</time>
      </trkpt>
      <trkpt lat="43.98881" lon="-0.16941">
        <ele>136.8</ele>
        <time>2018-06-02T13:53:52Z</time>
      </trkpt>
      <trkpt lat="43.98863" lon="-0.1695">
        <ele>139.07</ele>
        <time>2018-06-02T13:54:12Z</time>
      </trkpt>
      <trkpt lat="43.98845" lon="-0.16958">
        <ele>140.16</ele>
        <time>2018-06-02T13:54:28Z</time>
      </trkpt>
      <trkpt lat="43.98827" lon="-0.16956">
        <ele>138.1</ele>
        <time>2018-06-02T13:54:46Z</time>
      </trkpt>
      <trkpt lat="43.98809" lon="-0.16949">
        <ele>136.36</ele>
        <time>2018-06-02T13:55:04Z</time>
      </trkpt>
      <trkpt lat="43.98802" lon="-0.16926">
        <ele>135.26</ele>
        <time>2018-06-02T13:55:40Z</time>
      </trkpt>
      <trkpt lat="43.98783" lon="-0.16927">
        <ele>135.86</ele>
        <time>2018-06-02T13:57:16Z</time>
      </trkpt>
      <trkpt lat="43.98773" lon="-0.16948">
        <ele>137.04</ele>
        <time>2018-06-02T13:57:36Z</time>
      </trkpt>
      <trkpt lat="43.98767" lon="-0.16972">
        <ele>140.06</ele>
        <time>2018-06-02T13:58:00Z</time>
      </trkpt>
      <trkpt lat="43.9875" lon="-0.16984">
        <ele>138.98</ele>
        <time>2018-06-02T13:58:21Z</time>
      </trkpt>
      <trkpt lat="43.98733" lon="-0.1699">
        <ele>132.1</ele>
        <time>2018-06-02T13:58:53Z</time>
      </trkpt>
      <trkpt lat="43.98716" lon="-0.16998">
        <ele>132.13</ele>
        <time>2018-06-02T13:59:11Z</time>
      </trkpt>
      <trkpt lat="43.98698" lon="-0.17006">
        <ele>134.04</ele>
        <time>2018-06-02T13:59:27Z</time>
      </trkpt>
      <trkpt lat="43.9868" lon="-0.17016">
        <ele>134.07</ele>
        <time>2018-06-02T13:59:47Z</time>
      </trkpt>
      <trkpt lat="43.98662" lon="-0.17025">
        <ele>132.07</ele>
        <time>2018-06-02T14:00:05Z</time>
      </trkpt>
      <trkpt lat="43.98645" lon="-0.17035">
        <ele>134.07</ele>
        <time>2018-06-02T14:00:23Z</time>
      </trkpt>
      <trkpt lat="43.98627" lon="-0.17043">
        <ele>131.1</ele>
        <time>2018-06-02T14:00:44Z</time>
      </trkpt>
      <trkpt lat="43.9861" lon="-0.17051">
        <ele>130.09</ele>
        <time>2018-06-02T14:01:01Z</time>
      </trkpt>
      <trkpt lat="43.98593" lon="-0.17061">
        <ele>128.07</ele>
        <time>2018-06-02T14:01:22Z</time>
      </trkpt>
      <trkpt lat="43.9859" lon="-0.17086">
        <ele>130.68</ele>
        <time>2018-06-02T14:01:44Z</time>
      </trkpt>
      <trkpt lat="43.98591" lon="-0.17111">
        <ele>131.29</ele>
        <time>2018-06-02T14:02:12Z</time>
      </trkpt>
      <trkpt lat="43.98574" lon="-0.17121">
        <ele>123.8</ele>
        <time>2018-06-02T14:02:53Z</time>
      </trkpt>
      <trkpt lat="43.98558" lon="-0.17133">
        <ele>122.99</ele>
        <time>2018-06-02T14:03:11Z</time>
      </trkpt>
      <trkpt lat="43.98544" lon="-0.17151">
        <ele>122.04</ele>
        <time>2018-06-02T14:03:30Z</time>
      </trkpt>
      <trkpt lat="43.98531" lon="-0.17169">
        <ele>119.1</ele>
        <time>2018-06-02T14:03:51Z</time>
      </trkpt>
      <trkpt lat="43.98515" lon="-0.17184">
        <ele>121.39</ele>
        <time>2018-06-02T14:04:07Z</time>
      </trkpt>
      <trkpt lat="43.985" lon="-0.17198">
        <ele>121.28</ele>
        <time>2018-06-02T14:04:24Z</time>
      </trkpt>
      <trkpt lat="43.98482" lon="-0.17206">
        <ele>120.08</ele>
        <time>2018-06-02T14:04:43Z</time>
      </trkpt>
      <trkpt lat="43.98467" lon="-0.1722">
        <ele>117.08</ele>
        <time>2018-06-02T14:05:04Z</time>
      </trkpt>
      <trkpt lat="43.9845" lon="-0.17229">
        <ele>114.77</ele>
        <time>2018-06-02T14:05:28Z</time>
      </trkpt>
      <trkpt lat="43.98434" lon="-0.17245">
        <ele>114.07</ele>
        <time>2018-06-02T14:05:50Z</time>
      </trkpt>
      <trkpt lat="43.98419" lon="-0.17258">
        <ele>110.08</ele>
        <time>2018-06-02T14:06:09Z</time>
      </trkpt>
      <trkpt lat="43.984" lon="-0.17263">
        <ele>108.07</ele>
        <time>2018-06-02T14:06:31Z</time>
      </trkpt>
      <trkpt lat="43.98382" lon="-0.17263">
        <ele>107.07</ele>
        <time>2018-06-02T14:06:50Z</time>
      </trkpt>
      <trkpt lat="43.98364" lon="-0.17258">
        <ele>107.17</ele>
        <time>2018-06-02T14:07:13Z</time>
      </trkpt>
      <trkpt lat="43.98346" lon="-0.17259">
        <ele>102.07</ele>
        <time>2018-06-02T14:07:42Z</time>
      </trkpt>
      <trkpt lat="43.98332" lon="-0.17276">
        <ele>100.07</ele>
        <time>2018-06-02T14:08:32Z</time>
      </trkpt>
      <trkpt lat="43.98315" lon="-0.17287">
        <ele>103.07</ele>
        <time>2018-06-02T14:08:55Z</time>
      </trkpt>
      <trkpt lat="43.98298" lon="-0.173">
        <ele>103.07</ele>
        <time>2018-06-02T14:09:18Z</time>
      </trkpt>
      <trkpt lat="43.98282" lon="-0.1731">
        <ele>106.98</ele>
        <time>2018-06-02T14:09:42Z</time>
      </trkpt>
      <trkpt lat="43.98264" lon="-0.17319">
        <ele>109.07</ele>
        <time>2018-06-02T14:10:05Z</time>
      </trkpt>
      <trkpt lat="43.98247" lon="-0.1733">
        <ele>110.34</ele>
        <time>2018-06-02T14:10:28Z</time>
      </trkpt>
      <trkpt lat="43.9823" lon="-0.1734">
        <ele>112.97</ele>
        <time>2018-06-02T14:10:50Z</time>
      </trkpt>
      <trkpt lat="43.98213" lon="-0.1735">
        <ele>115.04</ele>
        <time>2018-06-02T14:11:08Z</time>
      </trkpt>
      <trkpt lat="43.98194" lon="-0.17348">
        <ele>117.06</ele>
        <time>2018-06-02T14:11:25Z</time>
      </trkpt>
      <trkpt lat="43.98176" lon="-0.17346">
        <ele>118.28</ele>
        <time>2018-06-02T14:11:43Z</time>
      </trkpt>
      <trkpt lat="43.98157" lon="-0.1735">
        <ele>121.07</ele>
        <time>2018-06-02T14:12:02Z</time>
      </trkpt>
      <trkpt lat="43.9814" lon="-0.17345">
        <ele>120.07</ele>
        <time>2018-06-02T14:12:20Z</time>
      </trkpt>
      <trkpt lat="43.98123" lon="-0.17336">
        <ele>118.25</ele>
        <time>2018-06-02T14:13:56Z</time>
      </trkpt>
      <trkpt lat="43.98105" lon="-0.17341">
        <ele>119.28</ele>
        <time>2018-06-02T14:14:12Z</time>
      </trkpt>
      <trkpt lat="43.98087" lon="-0.17336">
        <ele>120.07</ele>
        <time>2018-06-02T14:14:32Z</time>
      </trkpt>
      <trkpt lat="43.98069" lon="-0.17332">
        <ele>121.04</ele>
        <time>2018-06-02T14:14:51Z</time>
      </trkpt>
      <trkpt lat="43.9805" lon="-0.17328">
        <ele>121.07</ele>
        <time>2018-06-02T14:15:11Z</time>
      </trkpt>
      <trkpt lat="43.98032" lon="-0.17325">
        <ele>124.37</ele>
        <time>2018-06-02T14:15:29Z</time>
      </trkpt>
      <trkpt lat="43.98014" lon="-0.17322">
        <ele>123.1</ele>
        <time>2018-06-02T14:15:53Z</time>
      </trkpt>
      <trkpt lat="43.98009" lon="-0.17297">
        <ele>126.98</ele>
        <time>2018-06-02T14:16:16Z</time>
      </trkpt>
      <trkpt lat="43.98005" lon="-0.17272">
        <ele>126.98</ele>
        <time>2018-06-02T14:16:35Z</time>
      </trkpt>
      <trkpt lat="43.97993" lon="-0.17253">
        <ele>124.8</ele>
        <time>2018-06-02T14:16:52Z</time>
      </trkpt>
      <trkpt lat="43.97989" lon="-0.17228">
        <ele>124.37</ele>
        <time>2018-06-02T14:17:13Z</time>
      </trkpt>
      <trkpt lat="43.97982" lon="-0.17204">
        <ele>124.86</ele>
        <time>2018-06-02T14:17:29Z</time>
      </trkpt>
      <trkpt lat="43.97976" lon="-0.1718">
        <ele>124.35</ele>
        <time>2018-06-02T14:17:45Z</time>
      </trkpt>
      <trkpt lat="43.97962" lon="-0.17163">
        <ele>123.06</ele>
        <time>2018-06-02T14:18:02Z</time>
      </trkpt>
      <trkpt lat="43.97946" lon="-0.1715">
        <ele>124.37</ele>
        <time>2018-06-02T14:18:19Z</time>
      </trkpt>
      <trkpt lat="43.97928" lon="-0.17156">
        <ele>125.15</ele>
        <time>2018-06-02T14:18:43Z</time>
      </trkpt>
      <trkpt lat="43.97917" lon="-0.17177">
        <ele>128.08</ele>
        <time>2018-06-02T14:19:16Z</time>
      </trkpt>
      <trkpt lat="43.97905" lon="-0.17196">
        <ele>128.37</ele>
        <time>2018-06-02T14:19:41Z</time>
      </trkpt>
      <trkpt lat="43.97892" lon="-0.17213">
        <ele>128.98</ele>
        <time>2018-06-02T14:19:59Z</time>
      </trkpt>
      <trkpt lat="43.9788" lon="-0.17233">
        <ele>127.37</ele>
        <time>2018-06-02T14:20:16Z</time>
      </trkpt>
      <trkpt lat="43.97868" lon="-0.17252">
        <ele>127.07</ele>
        <time>2018-06-02T14:20:34Z</time>
      </trkpt>
      <trkpt lat="43.97856" lon="-0.17273">
        <ele>125.8</ele>
        <time>2018-06-02T14:20:53Z</time>
      </trkpt>
      <trkpt lat="43.97842" lon="-0.17291">
        <ele>125.1</ele>
        <time>2018-06-02T14:21:10Z</time>
      </trkpt>
      <trkpt lat="43.97833" lon="-0.17312">
        <ele>125.1</ele>
        <time>2018-06-02T14:21:32Z</time>
      </trkpt>
      <trkpt lat="43.97814" lon="-0.17311">
        <ele>121.07</ele>
        <time>2018-06-02T14:22:14Z</time>
      </trkpt>
      <trkpt lat="43.97797" lon="-0.17303">
        <ele>122.07</ele>
        <time>2018-06-02T14:22:32Z</time>
      </trkpt>
      <trkpt lat="43.97779" lon="-0.17294">
        <ele>122.13</ele>
        <time>2018-06-02T14:22:52Z</time>
      </trkpt>
      <trkpt lat="43.97762" lon="-0.17284">
        <ele>122.06</ele>
        <time>2018-06-02T14:23:21Z</time>
      </trkpt>
      <trkpt lat="43.97752" lon="-0.17264">
        <ele>118.79</ele>
        <time>2018-06-02T14:23:41Z</time>
      </trkpt>
      <trkpt lat="43.97741" lon="-0.17243">
        <ele>118.99</ele>
        <time>2018-06-02T14:24:06Z</time>
      </trkpt>
    </trkseg>
  </trk>
</gpx>